Wetterdaten: Donnerstag, 11.10.2018
Datum Zeit Temp. Aussen Temp. o. S. +5cm Feuchte Auss Luftdruck Regen Sonnenschein Regendauer Solar Windben Empfang
11.10.2018 00:00 15,7 C 14,4 C 13,3 C 85 % 1010,1 hPa 0,0 l/m 0 min 0 min 0 W/m 3,2 km/h (1 Bft) 97,87 %
11.10.2018 00:02 15,7 C 14,4 C 13,3 C 85 % 1010,2 hPa 0,0 l/m 0 min 0 min 0 W/m 3,2 km/h (1 Bft) 97,44 %
11.10.2018 00:04 15,7 C 14,4 C 13,3 C 85 % 1010,2 hPa 0,0 l/m 0 min 0 min 0 W/m 0,0 km/h (0 Bft) 91,49 %
11.10.2018 00:08 15,7 C 13,9 C 13,3 C 84 % 1010,3 hPa 0,0 l/m 0 min 0 min 0 W/m 0,0 km/h (0 Bft) 95,70 %
11.10.2018 00:10 15,7 C 13,9 C 13,3 C 84 % 1010,3 hPa 0,0 l/m 0 min 0 min 0 W/m 0,0 km/h (0 Bft) 95,74 %
11.10.2018 00:12 15,6 C 13,9 C 12,8 C 84 % 1010,3 hPa 0,0 l/m 0 min 0 min 0 W/m 0,0 km/h (0 Bft) 93,62 %
11.10.2018 00:14 15,6 C 13,9 C 12,8 C 84 % 1010,3 hPa 0,0 l/m 0 min 0 min 0 W/m 0,0 km/h (0 Bft) 95,74 %
11.10.2018 00:16 15,6 C 13,3 C 12,8 C 84 % 1010,3 hPa 0,0 l/m 0 min 0 min 0 W/m 0,0 km/h (0 Bft) 95,74 %
11.10.2018 00:18 15,5 C 13,3 C 12,8 C 84 % 1010,4 hPa 0,0 l/m 0 min 0 min 0 W/m 0,0 km/h (0 Bft) 95,74 %
11.10.2018 00:20 15,4 C 13,3 C 12,8 C 83 % 1010,3 hPa 0,0 l/m 0 min 0 min 0 W/m 0,0 km/h (0 Bft) 95,65 %
11.10.2018 00:22 15,4 C 13,3 C 12,8 C 84 % 1010,2 hPa 0,0 l/m 0 min 0 min 0 W/m 3,2 km/h (1 Bft) 93,62 %
11.10.2018 00:24 15,4 C 13,3 C 12,8 C 84 % 1010,2 hPa 0,0 l/m 0 min 0 min 0 W/m 0,0 km/h (0 Bft) 95,74 %
11.10.2018 00:26 15,3 C 13,9 C 12,8 C 84 % 1010,2 hPa 0,0 l/m 0 min 0 min 0 W/m 3,2 km/h (1 Bft) 95,74 %
11.10.2018 00:28 15,3 C 13,9 C 12,8 C 84 % 1010,1 hPa 0,0 l/m 0 min 0 min 0 W/m 6,4 km/h (2 Bft) 97,87 %
11.10.2018 00:30 15,3 C 13,9 C 12,8 C 84 % 1010,1 hPa 0,0 l/m 0 min 0 min 0 W/m 3,2 km/h (1 Bft) 95,74 %
11.10.2018 00:32 15,2 C 14,4 C 12,8 C 84 % 1010,1 hPa 0,0 l/m 0 min 0 min 0 W/m 3,2 km/h (1 Bft) 94,00 %
11.10.2018 00:34 15,2 C 14,4 C 12,8 C 85 % 1010,1 hPa 0,0 l/m 0 min 0 min 0 W/m 6,4 km/h (2 Bft) 93,62 %
11.10.2018 00:38 15,1 C 14,4 C 12,8 C 85 % 1010,2 hPa 0,0 l/m 0 min 0 min 0 W/m 12,9 km/h (3 Bft) 92,63 %
11.10.2018 00:40 15,1 C 14,4 C 12,8 C 85 % 1010,2 hPa 0,0 l/m 0 min 0 min 0 W/m 3,2 km/h (1 Bft) 93,62 %
11.10.2018 00:42 15,1 C 14,4 C 12,8 C 85 % 1010,1 hPa 0,0 l/m 0 min 0 min 0 W/m 3,2 km/h (1 Bft) 91,49 %
11.10.2018 00:44 15,1 C 14,4 C 12,8 C 85 % 1010,1 hPa 0,0 l/m 0 min 0 min 0 W/m 6,4 km/h (2 Bft) 95,65 %
11.10.2018 00:46 15,1 C 15,0 C 12,8 C 85 % 1010,1 hPa 0,0 l/m 0 min 0 min 0 W/m 6,4 km/h (2 Bft) 93,62 %
11.10.2018 00:48 15,1 C 14,4 C 12,8 C 86 % 1010,1 hPa 0,0 l/m 0 min 0 min 0 W/m 3,2 km/h (1 Bft) 93,62 %
11.10.2018 00:50 15,1 C 14,4 C 13,3 C 86 % 1010,1 hPa 0,0 l/m 0 min 0 min 0 W/m 3,2 km/h (1 Bft) 95,74 %
11.10.2018 00:52 15,1 C 15,0 C 13,3 C 86 % 1010,1 hPa 0,0 l/m 0 min 0 min 0 W/m 6,4 km/h (2 Bft) 97,92 %
11.10.2018 00:54 15,1 C 15,0 C 13,3 C 86 % 1010,1 hPa 0,0 l/m 0 min 0 min 0 W/m 9,7 km/h (2 Bft) 91,30 %
11.10.2018 00:56 15,1 C 15,0 C 13,3 C 86 % 1010,1 hPa 0,0 l/m 0 min 0 min 0 W/m 3,2 km/h (1 Bft) 96,61 %
11.10.2018 00:58 15,1 C 15,0 C 13,3 C 86 % 1010,2 hPa 0,0 l/m 0 min 0 min 0 W/m 6,4 km/h (2 Bft) 95,65 %
11.10.2018 01:00 15,1 C 15,0 C 13,3 C 86 % 1010,2 hPa 0,0 l/m 0 min 0 min 0 W/m 9,7 km/h (2 Bft) 97,87 %
11.10.2018 01:02 15,1 C 15,0 C 13,3 C 86 % 1010,1 hPa 0,0 l/m 0 min 0 min 0 W/m 9,7 km/h (2 Bft) 97,87 %
11.10.2018 01:04 15,1 C 14,4 C 13,3 C 86 % 1010,1 hPa 0,0 l/m 0 min 0 min 0 W/m 6,4 km/h (2 Bft) 95,74 %
11.10.2018 01:08 15,1 C 14,4 C 12,8 C 86 % 1010,1 hPa 0,0 l/m 0 min 0 min 0 W/m 6,4 km/h (2 Bft) 96,81 %
11.10.2018 01:10 15,1 C 14,4 C 12,8 C 86 % 1010,0 hPa 0,0 l/m 0 min 0 min 0 W/m 3,2 km/h (1 Bft) 97,83 %
11.10.2018 01:12 15,1 C 14,4 C 12,8 C 86 % 1010,0 hPa 0,0 l/m 0 min 0 min 0 W/m 3,2 km/h (1 Bft) 97,87 %
11.10.2018 01:14 15,1 C 14,4 C 12,8 C 86 % 1010,0 hPa 0,0 l/m 0 min 0 min 0 W/m 3,2 km/h (1 Bft) 97,87 %
11.10.2018 01:16 15,1 C 14,4 C 12,8 C 86 % 1010,0 hPa 0,0 l/m 0 min 0 min 0 W/m 6,4 km/h (2 Bft) 93,62 %
11.10.2018 01:18 15,1 C 14,4 C 12,8 C 86 % 1009,9 hPa 0,0 l/m 0 min 0 min 0 W/m 3,2 km/h (1 Bft) 97,87 %
11.10.2018 01:20 15,1 C 14,4 C 12,8 C 86 % 1009,9 hPa 0,0 l/m 0 min 0 min 0 W/m 3,2 km/h (1 Bft) 100,00 %
11.10.2018 01:22 15,1 C 14,4 C 12,8 C 85 % 1010,0 hPa 0,0 l/m 0 min 0 min 0 W/m 0,0 km/h (0 Bft) 94,29 %
11.10.2018 01:24 15,1 C 14,4 C 12,8 C 86 % 1009,9 hPa 0,0 l/m 0 min 0 min 0 W/m 3,2 km/h (1 Bft) 100,00 %
11.10.2018 01:26 15,0 C 14,4 C 12,8 C 86 % 1009,9 hPa 0,0 l/m 0 min 0 min 0 W/m 9,7 km/h (2 Bft) 97,87 %
11.10.2018 01:28 15,0 C 14,4 C 12,8 C 86 % 1010,0 hPa 0,0 l/m 0 min 0 min 0 W/m 6,4 km/h (2 Bft) 97,87 %
11.10.2018 01:30 15,0 C 14,4 C 12,8 C 86 % 1009,9 hPa 0,0 l/m 0 min 0 min 0 W/m 3,2 km/h (1 Bft) 100,00 %
11.10.2018 01:32 15,0 C 14,4 C 12,8 C 86 % 1010,0 hPa 0,0 l/m 0 min 0 min 0 W/m 3,2 km/h (1 Bft) 97,87 %
11.10.2018 01:34 15,0 C 14,4 C 12,8 C 86 % 1010,0 hPa 0,0 l/m 0 min 0 min 0 W/m 6,4 km/h (2 Bft) 100,00 %
11.10.2018 01:38 15,0 C 14,4 C 12,8 C 86 % 1010,1 hPa 0,0 l/m 0 min 0 min 0 W/m 6,4 km/h (2 Bft) 98,94 %
11.10.2018 01:40 15,0 C 14,4 C 12,8 C 85 % 1010,0 hPa 0,0 l/m 0 min 0 min 0 W/m 6,4 km/h (2 Bft) 100,00 %
11.10.2018 01:42 14,9 C 14,4 C 12,8 C 85 % 1010,1 hPa 0,0 l/m 0 min 0 min 0 W/m 6,4 km/h (2 Bft) 100,00 %
11.10.2018 01:44 14,9 C 14,4 C 12,8 C 85 % 1010,1 hPa 0,0 l/m 0 min 0 min 0 W/m 6,4 km/h (2 Bft) 100,00 %
11.10.2018 01:46 14,9 C 14,4 C 12,8 C 85 % 1010,1 hPa 0,0 l/m 0 min 0 min 0 W/m 3,2 km/h (1 Bft) 100,00 %
11.10.2018 01:48 14,9 C 14,4 C 12,8 C 85 % 1010,1 hPa 0,0 l/m 0 min 0 min 0 W/m 3,2 km/h (1 Bft) 100,00 %
11.10.2018 01:50 14,9 C 14,4 C 12,8 C 85 % 1010,0 hPa 0,0 l/m 0 min 0 min 0 W/m 9,7 km/h (2 Bft) 100,00 %
11.10.2018 01:52 14,9 C 14,4 C 12,8 C 85 % 1010,0 hPa 0,0 l/m 0 min 0 min 0 W/m 3,2 km/h (1 Bft) 100,00 %
11.10.2018 01:54 14,9 C 14,4 C 12,8 C 85 % 1010,1 hPa 0,0 l/m 0 min 0 min 0 W/m 6,4 km/h (2 Bft) 100,00 %
11.10.2018 01:56 14,9 C 14,4 C 12,8 C 85 % 1010,2 hPa 0,0 l/m 0 min 0 min 0 W/m 3,2 km/h (1 Bft) 100,00 %
11.10.2018 01:58 14,9 C 14,4 C 12,8 C 85 % 1010,1 hPa 0,0 l/m 0 min 0 min 0 W/m 6,4 km/h (2 Bft) 100,00 %
11.10.2018 02:00 14,9 C 14,4 C 12,8 C 85 % 1010,2 hPa 0,0 l/m 0 min 0 min 0 W/m 6,4 km/h (2 Bft) 100,00 %
11.10.2018 02:02 14,9 C 13,9 C 12,8 C 85 % 1010,2 hPa 0,0 l/m 0 min 0 min 0 W/m 3,2 km/h (1 Bft) 100,00 %
11.10.2018 02:04 14,9 C 13,9 C 12,8 C 85 % 1010,3 hPa 0,0 l/m 0 min 0 min 0 W/m 3,2 km/h (1 Bft) 100,00 %
11.10.2018 02:08 14,8 C 13,9 C 12,8 C 85 % 1010,2 hPa 0,0 l/m 0 min 0 min 0 W/m 6,4 km/h (2 Bft) 100,00 %
11.10.2018 02:10 14,8 C 13,9 C 12,8 C 85 % 1010,2 hPa 0,0 l/m 0 min 0 min 0 W/m 3,2 km/h (1 Bft) 100,00 %
11.10.2018 02:12 14,8 C 13,9 C 12,8 C 85 % 1010,1 hPa 0,0 l/m 0 min 0 min 0 W/m 6,4 km/h (2 Bft) 100,00 %
11.10.2018 02:14 14,8 C 13,9 C 12,8 C 85 % 1010,1 hPa 0,0 l/m 0 min 0 min 0 W/m 3,2 km/h (1 Bft) 100,00 %
11.10.2018 02:16 14,8 C 13,9 C 12,8 C 85 % 1010,2 hPa 0,0 l/m 0 min 0 min 0 W/m 3,2 km/h (1 Bft) 100,00 %
11.10.2018 02:18 14,8 C 13,9 C 12,8 C 85 % 1010,1 hPa 0,0 l/m 0 min 0 min 0 W/m 6,4 km/h (2 Bft) 100,00 %
11.10.2018 02:20 14,7 C 13,9 C 12,8 C 85 % 1010,2 hPa 0,0 l/m 0 min 0 min 0 W/m 3,2 km/h (1 Bft) 100,00 %
11.10.2018 02:22 14,7 C 13,9 C 12,8 C 85 % 1010,1 hPa 0,0 l/m 0 min 0 min 0 W/m 9,7 km/h (2 Bft) 100,00 %
11.10.2018 02:24 14,7 C 13,9 C 12,8 C 85 % 1010,1 hPa 0,0 l/m 0 min 0 min 0 W/m 3,2 km/h (1 Bft) 100,00 %
11.10.2018 02:26 14,7 C 13,9 C 12,8 C 85 % 1010,1 hPa 0,0 l/m 0 min 0 min 0 W/m 6,4 km/h (2 Bft) 100,00 %
11.10.2018 02:28 14,7 C 13,9 C 12,8 C 85 % 1010,1 hPa 0,0 l/m 0 min 0 min 0 W/m 9,7 km/h (2 Bft) 97,87 %
11.10.2018 02:30 14,7 C 14,4 C 12,8 C 85 % 1010,1 hPa 0,0 l/m 0 min 0 min 0 W/m 6,4 km/h (2 Bft) 100,00 %
11.10.2018 02:32 14,7 C 13,9 C 12,8 C 85 % 1010,1 hPa 0,0 l/m 0 min 0 min 0 W/m 3,2 km/h (1 Bft) 100,00 %
11.10.2018 02:34 14,7 C 13,9 C 12,8 C 85 % 1010,1 hPa 0,0 l/m 0 min 0 min 0 W/m 3,2 km/h (1 Bft) 100,00 %
11.10.2018 02:38 14,6 C 13,9 C 12,8 C 85 % 1010,1 hPa 0,0 l/m 0 min 0 min 0 W/m 3,2 km/h (1 Bft) 98,94 %
11.10.2018 02:40 14,6 C 13,9 C 12,8 C 85 % 1010,0 hPa 0,0 l/m 0 min 0 min 0 W/m 6,4 km/h (2 Bft) 100,00 %
11.10.2018 02:42 14,6 C 13,9 C 12,8 C 85 % 1010,1 hPa 0,0 l/m 0 min 0 min 0 W/m 9,7 km/h (2 Bft) 95,65 %
11.10.2018 02:44 14,6 C 13,9 C 12,8 C 86 % 1010,0 hPa 0,0 l/m 0 min 0 min 0 W/m 9,7 km/h (2 Bft) 97,87 %
11.10.2018 02:46 14,6 C 13,9 C 12,8 C 86 % 1010,0 hPa 0,0 l/m 0 min 0 min 0 W/m 6,4 km/h (2 Bft) 96,00 %
11.10.2018 02:48 14,6 C 13,9 C 12,8 C 86 % 1009,9 hPa 0,0 l/m 0 min 0 min 0 W/m 3,2 km/h (1 Bft) 97,92 %
11.10.2018 02:50 14,6 C 14,4 C 12,8 C 86 % 1009,9 hPa 0,0 l/m 0 min 0 min 0 W/m 9,7 km/h (2 Bft) 97,87 %
11.10.2018 02:52 14,6 C 13,9 C 12,8 C 86 % 1009,8 hPa 0,0 l/m 0 min 0 min 0 W/m 6,4 km/h (2 Bft) 97,83 %
11.10.2018 02:54 14,6 C 13,9 C 12,8 C 86 % 1009,8 hPa 0,0 l/m 0 min 0 min 0 W/m 9,7 km/h (2 Bft) 97,87 %
11.10.2018 02:56 14,6 C 14,4 C 12,8 C 86 % 1009,8 hPa 0,0 l/m 0 min 0 min 0 W/m 6,4 km/h (2 Bft) 97,87 %
11.10.2018 02:58 14,6 C 13,9 C 12,8 C 86 % 1009,9 hPa 0,0 l/m 0 min 0 min 0 W/m 6,4 km/h (2 Bft) 95,74 %
11.10.2018 03:00 14,6 C 14,4 C 12,8 C 86 % 1009,9 hPa 0,0 l/m 0 min 0 min 0 W/m 3,2 km/h (1 Bft) 97,87 %
11.10.2018 03:02 14,6 C 13,9 C 12,8 C 86 % 1009,9 hPa 0,0 l/m 0 min 0 min 0 W/m 3,2 km/h (1 Bft) 96,00 %
11.10.2018 03:04 14,6 C 13,9 C 12,8 C 86 % 1009,9 hPa 0,0 l/m 0 min 0 min 0 W/m 6,4 km/h (2 Bft) 97,83 %
11.10.2018 03:08 14,6 C 13,9 C 12,8 C 86 % 1009,8 hPa 0,0 l/m 0 min 0 min 0 W/m 9,7 km/h (2 Bft) 97,87 %
11.10.2018 03:10 14,6 C 13,9 C 12,8 C 86 % 1009,8 hPa 0,0 l/m 0 min 0 min 0 W/m 6,4 km/h (2 Bft) 97,87 %
11.10.2018 03:12 14,6 C 13,9 C 12,8 C 86 % 1009,8 hPa 0,0 l/m 0 min 0 min 0 W/m 6,4 km/h (2 Bft) 97,87 %
11.10.2018 03:14 14,6 C 13,9 C 12,8 C 86 % 1009,9 hPa 0,0 l/m 0 min 0 min 0 W/m 9,7 km/h (2 Bft) 95,74 %
11.10.2018 03:16 14,6 C 13,9 C 12,8 C 86 % 1009,9 hPa 0,0 l/m 0 min 0 min 0 W/m 3,2 km/h (1 Bft) 91,30 %
11.10.2018 03:18 14,6 C 13,9 C 12,8 C 86 % 1009,9 hPa 0,0 l/m 0 min 0 min 0 W/m 9,7 km/h (2 Bft) 93,62 %
11.10.2018 03:20 14,6 C 13,9 C 12,8 C 86 % 1009,8 hPa 0,0 l/m 0 min 0 min 0 W/m 6,4 km/h (2 Bft) 95,74 %
11.10.2018 03:22 14,6 C 13,9 C 12,8 C 86 % 1009,8 hPa 0,0 l/m 0 min 0 min 0 W/m 6,4 km/h (2 Bft) 95,74 %
11.10.2018 03:24 14,6 C 13,9 C 12,8 C 86 % 1009,8 hPa 0,0 l/m 0 min 0 min 0 W/m 3,2 km/h (1 Bft) 95,74 %
11.10.2018 03:26 14,6 C 13,9 C 12,8 C 86 % 1009,8 hPa 0,0 l/m 0 min 0 min 0 W/m 3,2 km/h (1 Bft) 91,49 %
11.10.2018 03:28 14,5 C 13,9 C 12,8 C 86 % 1009,8 hPa 0,0 l/m 0 min 0 min 0 W/m 6,4 km/h (2 Bft) 95,65 %
11.10.2018 03:30 14,5 C 13,9 C 12,8 C 86 % 1009,8 hPa 0,0 l/m 0 min 0 min 0 W/m 3,2 km/h (1 Bft) 100,00 %
11.10.2018 03:32 14,5 C 13,9 C 12,8 C 86 % 1009,7 hPa 0,0 l/m 0 min 0 min 0 W/m 6,4 km/h (2 Bft) 95,74 %
11.10.2018 03:34 14,5 C 13,9 C 12,8 C 86 % 1009,7 hPa 0,0 l/m 0 min 0 min 0 W/m 12,9 km/h (3 Bft) 93,62 %
11.10.2018 03:38 14,5 C 13,9 C 12,8 C 86 % 1009,7 hPa 0,0 l/m 0 min 0 min 0 W/m 6,4 km/h (2 Bft) 94,62 %
11.10.2018 03:40 14,4 C 13,9 C 12,8 C 86 % 1009,7 hPa 0,0 l/m 0 min 0 min 0 W/m 6,4 km/h (2 Bft) 95,74 %
11.10.2018 03:42 14,4 C 13,9 C 12,8 C 86 % 1009,7 hPa 0,0 l/m 0 min 0 min 0 W/m 6,4 km/h (2 Bft) 94,29 %
11.10.2018 03:44 14,4 C 13,9 C 12,8 C 86 % 1009,7 hPa 0,0 l/m 0 min 0 min 0 W/m 3,2 km/h (1 Bft) 95,74 %
11.10.2018 03:46 14,4 C 13,9 C 12,8 C 86 % 1009,7 hPa 0,0 l/m 0 min 0 min 0 W/m 6,4 km/h (2 Bft) 93,22 %
11.10.2018 03:48 14,4 C 13,9 C 12,8 C 86 % 1009,7 hPa 0,0 l/m 0 min 0 min 0 W/m 3,2 km/h (1 Bft) 91,49 %
11.10.2018 03:50 14,4 C 13,9 C 12,8 C 86 % 1009,7 hPa 0,0 l/m 0 min 0 min 0 W/m 3,2 km/h (1 Bft) 95,65 %
11.10.2018 03:52 14,4 C 13,9 C 12,8 C 85 % 1009,7 hPa 0,0 l/m 0 min 0 min 0 W/m 3,2 km/h (1 Bft) 93,62 %
11.10.2018 03:54 14,3 C 13,9 C 12,8 C 85 % 1009,8 hPa 0,0 l/m 0 min 0 min 0 W/m 3,2 km/h (1 Bft) 97,14 %
11.10.2018 03:56 14,3 C 13,3 C 12,8 C 85 % 1009,8 hPa 0,0 l/m 0 min 0 min 0 W/m 3,2 km/h (1 Bft) 95,74 %
11.10.2018 03:58 14,3 C 13,3 C 12,8 C 85 % 1009,8 hPa 0,0 l/m 0 min 0 min 0 W/m 0,0 km/h (0 Bft) 95,74 %
11.10.2018 04:00 14,3 C 13,3 C 12,8 C 85 % 1009,8 hPa 0,0 l/m 0 min 0 min 0 W/m 3,2 km/h (1 Bft) 93,62 %
11.10.2018 04:02 14,3 C 13,3 C 12,8 C 85 % 1009,6 hPa 0,0 l/m 0 min 0 min 0 W/m 3,2 km/h (1 Bft) 100,00 %
11.10.2018 04:04 14,3 C 13,3 C 12,2 C 85 % 1009,6 hPa 0,0 l/m 0 min 0 min 0 W/m 6,4 km/h (2 Bft) 95,74 %
11.10.2018 04:08 14,2 C 13,9 C 12,2 C 85 % 1009,6 hPa 0,0 l/m 0 min 0 min 0 W/m 9,7 km/h (2 Bft) 96,77 %
11.10.2018 04:10 14,2 C 13,9 C 12,2 C 85 % 1009,7 hPa 0,0 l/m 0 min 0 min 0 W/m 3,2 km/h (1 Bft) 97,87 %
11.10.2018 04:12 14,2 C 13,9 C 12,2 C 86 % 1009,7 hPa 0,0 l/m 0 min 0 min 0 W/m 6,4 km/h (2 Bft) 97,87 %
11.10.2018 04:14 14,2 C 13,9 C 12,8 C 86 % 1009,6 hPa 0,0 l/m 0 min 0 min 0 W/m 6,4 km/h (2 Bft) 97,87 %
11.10.2018 04:16 14,2 C 13,9 C 12,8 C 86 % 1009,6 hPa 0,0 l/m 0 min 0 min 0 W/m 6,4 km/h (2 Bft) 95,74 %
11.10.2018 04:18 14,2 C 13,9 C 12,8 C 86 % 1009,7 hPa 0,0 l/m 0 min 0 min 0 W/m 12,9 km/h (3 Bft) 97,83 %
11.10.2018 04:20 14,2 C 13,9 C 12,8 C 86 % 1009,7 hPa 0,0 l/m 0 min 0 min 0 W/m 3,2 km/h (1 Bft) 98,31 %
11.10.2018 04:22 14,2 C 13,9 C 12,8 C 86 % 1009,7 hPa 0,0 l/m 0 min 0 min 0 W/m 6,4 km/h (2 Bft) 97,14 %
11.10.2018 04:24 14,2 C 13,9 C 12,8 C 86 % 1009,6 hPa 0,0 l/m 0 min 0 min 0 W/m 9,7 km/h (2 Bft) 97,87 %
11.10.2018 04:26 14,2 C 13,9 C 12,8 C 86 % 1009,5 hPa 0,0 l/m 0 min 0 min 0 W/m 12,9 km/h (3 Bft) 95,74 %
11.10.2018 04:28 14,2 C 13,9 C 12,8 C 86 % 1009,5 hPa 0,0 l/m 0 min 0 min 0 W/m 6,4 km/h (2 Bft) 97,83 %
11.10.2018 04:30 14,2 C 13,9 C 12,8 C 86 % 1009,5 hPa 0,0 l/m 0 min 0 min 0 W/m 3,2 km/h (1 Bft) 97,87 %
11.10.2018 04:32 14,2 C 13,3 C 12,8 C 86 % 1009,5 hPa 0,0 l/m 0 min 0 min 0 W/m 3,2 km/h (1 Bft) 95,74 %
11.10.2018 04:34 14,2 C 13,9 C 12,2 C 86 % 1009,5 hPa 0,0 l/m 0 min 0 min 0 W/m 9,7 km/h (2 Bft) 100,00 %
11.10.2018 04:38 14,2 C 13,3 C 12,2 C 86 % 1009,5 hPa 0,0 l/m 0 min 0 min 0 W/m 9,7 km/h (2 Bft) 100,00 %
11.10.2018 04:40 14,2 C 13,3 C 12,2 C 86 % 1009,5 hPa 0,0 l/m 0 min 0 min 0 W/m 3,2 km/h (1 Bft) 100,00 %
11.10.2018 04:42 14,2 C 13,3 C 12,2 C 86 % 1009,5 hPa 0,0 l/m 0 min 0 min 0 W/m 6,4 km/h (2 Bft) 97,87 %
11.10.2018 04:44 14,2 C 13,3 C 12,2 C 86 % 1009,4 hPa 0,0 l/m 0 min 0 min 0 W/m 6,4 km/h (2 Bft) 100,00 %
11.10.2018 04:46 14,2 C 13,3 C 12,2 C 86 % 1009,4 hPa 0,0 l/m 0 min 0 min 0 W/m 3,2 km/h (1 Bft) 97,87 %
11.10.2018 04:48 14,2 C 13,3 C 12,2 C 86 % 1009,3 hPa 0,0 l/m 0 min 0 min 0 W/m 6,4 km/h (2 Bft) 100,00 %
11.10.2018 04:50 14,2 C 13,3 C 12,2 C 86 % 1009,3 hPa 0,0 l/m 0 min 0 min 0 W/m 6,4 km/h (2 Bft) 96,55 %
11.10.2018 04:52 14,2 C 13,3 C 12,2 C 86 % 1009,2 hPa 0,0 l/m 0 min 0 min 0 W/m 9,7 km/h (2 Bft) 100,00 %
11.10.2018 04:54 14,2 C 13,3 C 12,2 C 86 % 1009,2 hPa 0,0 l/m 0 min 0 min 0 W/m 6,4 km/h (2 Bft) 100,00 %
11.10.2018 04:56 14,2 C 13,3 C 12,2 C 86 % 1009,2 hPa 0,0 l/m 0 min 0 min 0 W/m 9,7 km/h (2 Bft) 97,87 %
11.10.2018 04:58 14,2 C 13,3 C 12,2 C 86 % 1009,1 hPa 0,0 l/m 0 min 0 min 0 W/m 6,4 km/h (2 Bft) 100,00 %
11.10.2018 05:00 14,2 C 13,3 C 12,2 C 86 % 1009,1 hPa 0,0 l/m 0 min 0 min 0 W/m 6,4 km/h (2 Bft) 100,00 %
11.10.2018 05:02 14,2 C 13,3 C 12,2 C 86 % 1009,2 hPa 0,0 l/m 0 min 0 min 0 W/m 9,7 km/h (2 Bft) 100,00 %
11.10.2018 05:04 14,2 C 13,3 C 12,2 C 86 % 1009,2 hPa 0,0 l/m 0 min 0 min 0 W/m 3,2 km/h (1 Bft) 100,00 %
11.10.2018 05:05 14,2 C 13,3 C 12,2 C 86 % 1009,2 hPa 0,0 l/m 0 min 0 min 0 W/m 9,7 km/h (2 Bft) 100,00 %
11.10.2018 05:10 14,1 C 13,3 C 12,2 C 86 % 1009,4 hPa 0,0 l/m 0 min 0 min 0 W/m 6,4 km/h (2 Bft) 100,00 %
11.10.2018 05:12 14,1 C 13,3 C 12,2 C 86 % 1009,5 hPa 0,0 l/m 0 min 0 min 0 W/m 9,7 km/h (2 Bft) 91,67 %
11.10.2018 05:14 14,1 C 13,3 C 12,2 C 86 % 1009,5 hPa 0,0 l/m 0 min 0 min 0 W/m 9,7 km/h (2 Bft) 97,83 %
11.10.2018 05:16 14,1 C 13,3 C 12,2 C 86 % 1009,4 hPa 0,0 l/m 0 min 0 min 0 W/m 9,7 km/h (2 Bft) 100,00 %
11.10.2018 05:18 14,1 C 13,3 C 12,2 C 86 % 1009,4 hPa 0,0 l/m 0 min 0 min 0 W/m 9,7 km/h (2 Bft) 97,87 %
11.10.2018 05:20 14,1 C 13,3 C 12,2 C 86 % 1009,5 hPa 0,0 l/m 0 min 0 min 0 W/m 6,4 km/h (2 Bft) 100,00 %
11.10.2018 05:22 14,1 C 13,3 C 12,2 C 86 % 1009,5 hPa 0,0 l/m 0 min 0 min 0 W/m 3,2 km/h (1 Bft) 97,83 %
11.10.2018 05:24 14,1 C 13,3 C 12,2 C 86 % 1009,5 hPa 0,0 l/m 0 min 0 min 0 W/m 9,7 km/h (2 Bft) 97,87 %
11.10.2018 05:26 14,0 C 13,3 C 12,2 C 86 % 1009,7 hPa 0,0 l/m 0 min 0 min 0 W/m 9,7 km/h (2 Bft) 97,87 %
11.10.2018 05:28 14,0 C 13,3 C 12,2 C 86 % 1009,7 hPa 0,0 l/m 0 min 0 min 0 W/m 6,4 km/h (2 Bft) 97,87 %
11.10.2018 05:30 14,0 C 13,3 C 12,2 C 86 % 1009,7 hPa 0,0 l/m 0 min 0 min 0 W/m 6,4 km/h (2 Bft) 97,87 %
11.10.2018 05:32 14,0 C 13,3 C 12,2 C 86 % 1009,7 hPa 0,0 l/m 0 min 0 min 0 W/m 9,7 km/h (2 Bft) 97,96 %
11.10.2018 05:34 13,9 C 13,3 C 12,2 C 86 % 1009,6 hPa 0,0 l/m 0 min 0 min 0 W/m 6,4 km/h (2 Bft) 95,74 %
11.10.2018 05:38 13,9 C 13,3 C 12,2 C 86 % 1009,8 hPa 0,0 l/m 0 min 0 min 0 W/m 6,4 km/h (2 Bft) 96,81 %
11.10.2018 05:40 13,9 C 13,3 C 12,2 C 86 % 1009,8 hPa 0,0 l/m 0 min 0 min 0 W/m 6,4 km/h (2 Bft) 100,00 %
11.10.2018 05:42 13,9 C 13,3 C 12,2 C 86 % 1009,5 hPa 0,0 l/m 0 min 0 min 0 W/m 12,9 km/h (3 Bft) 96,61 %
11.10.2018 05:44 13,9 C 13,3 C 12,2 C 86 % 1009,5 hPa 0,0 l/m 0 min 0 min 0 W/m 16,1 km/h (3 Bft) 97,87 %
11.10.2018 05:46 13,9 C 13,9 C 12,2 C 86 % 1009,5 hPa 0,0 l/m 0 min 0 min 0 W/m 12,9 km/h (3 Bft) 97,14 %
11.10.2018 05:48 13,9 C 13,9 C 12,8 C 86 % 1009,7 hPa 0,0 l/m 0 min 0 min 0 W/m 16,1 km/h (3 Bft) 93,62 %
11.10.2018 05:50 13,9 C 13,3 C 12,8 C 86 % 1009,7 hPa 0,0 l/m 0 min 0 min 0 W/m 9,7 km/h (2 Bft) 98,28 %
11.10.2018 05:52 13,9 C 13,3 C 12,8 C 86 % 1009,7 hPa 0,0 l/m 0 min 0 min 0 W/m 3,2 km/h (1 Bft) 95,83 %
11.10.2018 05:54 13,9 C 13,3 C 12,2 C 86 % 1009,7 hPa 0,0 l/m 0 min 0 min 0 W/m 12,9 km/h (3 Bft) 97,14 %
11.10.2018 05:56 13,9 C 13,3 C 12,2 C 86 % 1009,7 hPa 0,0 l/m 0 min 0 min 0 W/m 9,7 km/h (2 Bft) 97,87 %
11.10.2018 05:58 14,0 C 13,3 C 12,2 C 86 % 1009,8 hPa 0,0 l/m 0 min 0 min 0 W/m 9,7 km/h (2 Bft) 95,74 %
11.10.2018 06:00 14,0 C 13,3 C 12,2 C 86 % 1009,7 hPa 0,0 l/m 0 min 0 min 0 W/m 9,7 km/h (2 Bft) 93,48 %
11.10.2018 06:02 14,0 C 13,3 C 12,2 C 86 % 1009,7 hPa 0,0 l/m 0 min 0 min 0 W/m 9,7 km/h (2 Bft) 95,74 %
11.10.2018 06:04 14,0 C 13,3 C 12,2 C 86 % 1009,7 hPa 0,0 l/m 0 min 0 min 0 W/m 6,4 km/h (2 Bft) 95,74 %
11.10.2018 06:07 14,0 C 13,3 C 12,2 C 86 % 1009,8 hPa 0,0 l/m 0 min 0 min 0 W/m 6,4 km/h (2 Bft) 95,74 %
11.10.2018 06:08 14,0 C 13,3 C 12,2 C 86 % 1009,8 hPa 0,0 l/m 0 min 0 min 0 W/m 6,4 km/h (2 Bft) 94,68 %
11.10.2018 06:10 14,0 C 13,3 C 12,2 C 86 % 1009,7 hPa 0,0 l/m 0 min 0 min 0 W/m 9,7 km/h (2 Bft) 95,74 %
11.10.2018 06:12 13,9 C 13,3 C 12,2 C 86 % 1009,6 hPa 0,0 l/m 0 min 0 min 0 W/m 9,7 km/h (2 Bft) 97,83 %
11.10.2018 06:14 13,9 C 13,3 C 12,2 C 86 % 1009,6 hPa 0,0 l/m 0 min 0 min 0 W/m 12,9 km/h (3 Bft) 93,62 %
11.10.2018 06:16 14,0 C 13,3 C 12,2 C 86 % 1009,4 hPa 0,0 l/m 0 min 0 min 0 W/m 6,4 km/h (2 Bft) 97,92 %
11.10.2018 06:18 13,9 C 13,3 C 12,2 C 86 % 1009,4 hPa 0,0 l/m 0 min 0 min 0 W/m 6,4 km/h (2 Bft) 97,87 %
11.10.2018 06:20 13,9 C 13,3 C 12,2 C 86 % 1009,5 hPa 0,0 l/m 0 min 0 min 0 W/m 3,2 km/h (1 Bft) 98,28 %
11.10.2018 06:22 13,9 C 13,3 C 12,2 C 86 % 1009,6 hPa 0,0 l/m 0 min 0 min 0 W/m 6,4 km/h (2 Bft) 97,14 %
11.10.2018 06:24 13,9 C 12,8 C 12,2 C 86 % 1009,6 hPa 0,0 l/m 0 min 0 min 0 W/m 6,4 km/h (2 Bft) 97,87 %
11.10.2018 06:26 13,9 C 12,8 C 12,2 C 86 % 1009,5 hPa 0,0 l/m 0 min 0 min 0 W/m 6,4 km/h (2 Bft) 95,74 %
11.10.2018 06:28 13,9 C 12,8 C 12,2 C 86 % 1009,4 hPa 0,0 l/m 0 min 0 min 0 W/m 6,4 km/h (2 Bft) 97,87 %
11.10.2018 06:30 13,9 C 12,8 C 12,2 C 86 % 1009,4 hPa 0,0 l/m 0 min 0 min 0 W/m 6,4 km/h (2 Bft) 97,87 %
11.10.2018 06:32 13,8 C 12,8 C 12,2 C 86 % 1009,3 hPa 0,0 l/m 0 min 0 min 0 W/m 6,4 km/h (2 Bft) 95,83 %
11.10.2018 06:34 13,8 C 12,8 C 12,2 C 86 % 1009,3 hPa 0,0 l/m 0 min 0 min 0 W/m 6,4 km/h (2 Bft) 97,87 %
11.10.2018 06:44 13,7 C 12,8 C 12,2 C 86 % 1009,3 hPa 0,0 l/m 0 min 0 min 0 W/m 6,4 km/h (2 Bft) 97,87 %
11.10.2018 06:46 13,7 C 12,8 C 12,2 C 86 % 1009,3 hPa 0,0 l/m 0 min 0 min 0 W/m 9,7 km/h (2 Bft) 95,74 %
11.10.2018 06:48 13,7 C 12,8 C 12,2 C 86 % 1009,3 hPa 0,0 l/m 0 min 0 min 0 W/m 6,4 km/h (2 Bft) 95,74 %
11.10.2018 06:50 13,7 C 12,8 C 12,2 C 86 % 1009,4 hPa 0,0 l/m 0 min 0 min 0 W/m 6,4 km/h (2 Bft) 100,00 %
11.10.2018 06:52 13,7 C 12,8 C 12,2 C 86 % 1009,4 hPa 0,0 l/m 0 min 0 min 0 W/m 3,2 km/h (1 Bft) 100,00 %
11.10.2018 06:54 13,6 C 12,8 C 12,2 C 86 % 1009,4 hPa 0,0 l/m 0 min 0 min 0 W/m 6,4 km/h (2 Bft) 97,87 %
11.10.2018 06:56 13,6 C 12,8 C 12,2 C 86 % 1009,4 hPa 0,0 l/m 0 min 0 min 0 W/m 3,2 km/h (1 Bft) 100,00 %
11.10.2018 06:58 13,6 C 12,8 C 12,2 C 86 % 1009,4 hPa 0,0 l/m 0 min 0 min 0 W/m 6,4 km/h (2 Bft) 95,74 %
11.10.2018 07:00 13,6 C 12,8 C 12,2 C 86 % 1009,4 hPa 0,0 l/m 0 min 0 min 0 W/m 6,4 km/h (2 Bft) 100,00 %
11.10.2018 07:02 13,6 C 12,8 C 12,2 C 86 % 1009,5 hPa 0,0 l/m 0 min 0 min 0 W/m 6,4 km/h (2 Bft) 97,83 %
11.10.2018 07:06 13,5 C 12,8 C 12,2 C 87 % 1009,5 hPa 0,0 l/m 0 min 0 min 0 W/m 6,4 km/h (2 Bft) 97,44 %
11.10.2018 07:08 13,5 C 12,8 C 12,2 C 87 % 1009,4 hPa 0,0 l/m 0 min 0 min 0 W/m 6,4 km/h (2 Bft) 95,74 %
11.10.2018 07:10 13,5 C 12,8 C 12,2 C 87 % 1009,4 hPa 0,0 l/m 0 min 0 min 0 W/m 6,4 km/h (2 Bft) 97,87 %
11.10.2018 07:12 13,5 C 12,8 C 12,2 C 87 % 1009,4 hPa 0,0 l/m 0 min 0 min 0 W/m 6,4 km/h (2 Bft) 95,74 %
11.10.2018 07:14 13,4 C 12,8 C 12,2 C 87 % 1009,5 hPa 0,0 l/m 0 min 0 min 0 W/m 12,9 km/h (3 Bft) 95,65 %
11.10.2018 07:16 13,4 C 12,8 C 12,2 C 87 % 1009,4 hPa 0,0 l/m 0 min 0 min 0 W/m 9,7 km/h (2 Bft) 97,96 %
11.10.2018 07:18 13,4 C 12,8 C 12,2 C 87 % 1009,4 hPa 0,0 l/m 0 min 0 min 0 W/m 9,7 km/h (2 Bft) 95,65 %
11.10.2018 07:20 13,4 C 12,8 C 12,2 C 88 % 1009,5 hPa 0,0 l/m 0 min 0 min 0 W/m 6,4 km/h (2 Bft) 97,87 %
11.10.2018 07:22 13,4 C 12,8 C 12,2 C 88 % 1009,5 hPa 0,0 l/m 0 min 0 min 0 W/m 3,2 km/h (1 Bft) 97,87 %
11.10.2018 07:24 13,4 C 12,8 C 12,2 C 88 % 1009,5 hPa 0,0 l/m 0 min 0 min 0 W/m 6,4 km/h (2 Bft) 97,87 %
11.10.2018 07:26 13,4 C 12,8 C 12,2 C 88 % 1009,4 hPa 0,0 l/m 0 min 0 min 0 W/m 12,9 km/h (3 Bft) 97,87 %
11.10.2018 07:28 13,4 C 12,8 C 12,2 C 88 % 1009,5 hPa 0,0 l/m 0 min 0 min 0 W/m 9,7 km/h (2 Bft) 97,87 %
11.10.2018 07:30 13,4 C 13,3 C 12,2 C 88 % 1009,4 hPa 0,0 l/m 0 min 0 min 0 W/m 12,9 km/h (3 Bft) 97,83 %
11.10.2018 07:32 13,4 C 13,3 C 12,2 C 88 % 1009,5 hPa 0,0 l/m 0 min 0 min 0 W/m 9,7 km/h (2 Bft) 92,31 %
11.10.2018 07:34 13,4 C 13,3 C 12,2 C 88 % 1009,6 hPa 0,0 l/m 0 min 0 min 0 W/m 19,3 km/h (3 Bft) 97,83 %
11.10.2018 07:38 13,5 C 13,3 C 12,2 C 88 % 1009,6 hPa 0,0 l/m 0 min 0 min 0 W/m 12,9 km/h (3 Bft) 97,87 %
11.10.2018 07:40 13,5 C 13,3 C 12,2 C 88 % 1009,6 hPa 0,0 l/m 0 min 0 min 0 W/m 9,7 km/h (2 Bft) 97,87 %
11.10.2018 07:42 13,5 C 12,8 C 12,2 C 88 % 1009,7 hPa 0,0 l/m 0 min 0 min 0 W/m 6,4 km/h (2 Bft) 97,87 %
11.10.2018 07:44 13,5 C 12,8 C 12,2 C 88 % 1009,8 hPa 0,0 l/m 0 min 0 min 0 W/m 9,7 km/h (2 Bft) 97,83 %
11.10.2018 07:46 13,5 C 12,8 C 12,2 C 88 % 1009,8 hPa 0,0 l/m 0 min 0 min 5 W/m 9,7 km/h (2 Bft) 96,08 %
11.10.2018 07:48 13,5 C 13,3 C 12,2 C 88 % 1009,8 hPa 0,0 l/m 0 min 0 min 5 W/m 12,9 km/h (3 Bft) 97,83 %
11.10.2018 07:50 13,5 C 13,3 C 12,2 C 88 % 1009,8 hPa 0,0 l/m 0 min 0 min 6 W/m 12,9 km/h (3 Bft) 97,87 %
11.10.2018 07:52 13,5 C 13,3 C 12,2 C 88 % 1009,9 hPa 0,0 l/m 0 min 0 min 7 W/m 12,9 km/h (3 Bft) 95,74 %
11.10.2018 07:54 13,6 C 13,3 C 12,2 C 88 % 1009,9 hPa 0,0 l/m 0 min 0 min 9 W/m 9,7 km/h (2 Bft) 93,62 %
11.10.2018 07:56 13,6 C 13,3 C 12,2 C 88 % 1009,9 hPa 0,0 l/m 0 min 0 min 9 W/m 9,7 km/h (2 Bft) 97,87 %
11.10.2018 07:58 13,6 C 13,3 C 12,2 C 88 % 1009,9 hPa 0,0 l/m 0 min 0 min 11 W/m 12,9 km/h (3 Bft) 97,87 %
11.10.2018 08:00 13,6 C 13,3 C 12,2 C 89 % 1009,9 hPa 0,0 l/m 0 min 0 min 11 W/m 12,9 km/h (3 Bft) 95,74 %
11.10.2018 08:02 13,6 C 13,3 C 12,2 C 89 % 1009,9 hPa 0,0 l/m 0 min 0 min 11 W/m 16,1 km/h (3 Bft) 93,62 %
11.10.2018 08:04 13,6 C 13,3 C 12,2 C 88 % 1009,9 hPa 0,0 l/m 0 min 0 min 12 W/m 9,7 km/h (2 Bft) 97,87 %
11.10.2018 08:08 13,7 C 13,3 C 12,2 C 88 % 1010,0 hPa 0,0 l/m 0 min 0 min 12 W/m 12,9 km/h (3 Bft) 94,62 %
11.10.2018 08:10 13,7 C 13,3 C 12,2 C 88 % 1010,1 hPa 0,0 l/m 0 min 0 min 14 W/m 9,7 km/h (2 Bft) 97,87 %
11.10.2018 08:12 13,7 C 13,3 C 12,2 C 88 % 1010,2 hPa 0,0 l/m 0 min 0 min 15 W/m 9,7 km/h (2 Bft) 95,74 %
11.10.2018 08:14 13,7 C 13,3 C 12,2 C 88 % 1010,2 hPa 0,0 l/m 0 min 0 min 16 W/m 12,9 km/h (3 Bft) 95,74 %
11.10.2018 08:16 13,7 C 13,3 C 12,2 C 88 % 1010,2 hPa 0,0 l/m 0 min 0 min 16 W/m 6,4 km/h (2 Bft) 95,74 %
11.10.2018 08:18 13,7 C 13,3 C 12,2 C 88 % 1010,0 hPa 0,0 l/m 0 min 0 min 18 W/m 12,9 km/h (3 Bft) 97,83 %
11.10.2018 08:20 13,7 C 13,3 C 12,2 C 88 % 1010,1 hPa 0,0 l/m 0 min 0 min 18 W/m 12,9 km/h (3 Bft) 97,87 %
11.10.2018 08:22 13,7 C 13,3 C 12,2 C 88 % 1010,1 hPa 0,0 l/m 0 min 0 min 18 W/m 12,9 km/h (3 Bft) 97,92 %
11.10.2018 08:24 13,7 C 13,3 C 12,2 C 88 % 1010,1 hPa 0,0 l/m 0 min 0 min 19 W/m 9,7 km/h (2 Bft) 95,74 %
11.10.2018 08:26 13,7 C 13,3 C 12,2 C 88 % 1010,1 hPa 0,0 l/m 0 min 0 min 19 W/m 9,7 km/h (2 Bft) 97,87 %
11.10.2018 08:28 13,7 C 13,3 C 12,2 C 88 % 1010,2 hPa 0,0 l/m 0 min 0 min 19 W/m 16,1 km/h (3 Bft) 95,74 %
11.10.2018 08:30 13,7 C 13,3 C 12,2 C 88 % 1010,2 hPa 0,0 l/m 0 min 0 min 20 W/m 12,9 km/h (3 Bft) 97,83 %
11.10.2018 08:32 13,7 C 13,3 C 12,2 C 88 % 1010,3 hPa 0,0 l/m 0 min 0 min 21 W/m 19,3 km/h (3 Bft) 98,04 %
11.10.2018 08:34 13,8 C 13,3 C 12,2 C 88 % 1010,3 hPa 0,0 l/m 0 min 0 min 21 W/m 12,9 km/h (3 Bft) 95,65 %
11.10.2018 08:38 13,8 C 13,3 C 12,2 C 88 % 1010,3 hPa 0,0 l/m 0 min 0 min 23 W/m 12,9 km/h (3 Bft) 95,74 %
11.10.2018 08:40 13,8 C 13,3 C 12,2 C 88 % 1010,2 hPa 0,0 l/m 0 min 0 min 23 W/m 16,1 km/h (3 Bft) 97,87 %
11.10.2018 08:42 13,8 C 13,3 C 12,2 C 88 % 1010,3 hPa 0,0 l/m 0 min 0 min 25 W/m 12,9 km/h (3 Bft) 95,74 %
11.10.2018 08:44 13,8 C 13,9 C 12,2 C 88 % 1010,3 hPa 0,0 l/m 0 min 0 min 25 W/m 12,9 km/h (3 Bft) 95,74 %
11.10.2018 08:46 13,8 C 13,9 C 12,8 C 88 % 1010,4 hPa 0,0 l/m 0 min 0 min 26 W/m 19,3 km/h (3 Bft) 93,62 %
11.10.2018 08:48 13,8 C 13,9 C 12,8 C 88 % 1010,5 hPa 0,0 l/m 0 min 0 min 26 W/m 12,9 km/h (3 Bft) 95,74 %
11.10.2018 08:50 13,9 C 13,9 C 12,8 C 88 % 1010,5 hPa 0,0 l/m 0 min 0 min 26 W/m 16,1 km/h (3 Bft) 93,62 %
11.10.2018 08:52 13,9 C 13,9 C 12,8 C 88 % 1010,5 hPa 0,0 l/m 0 min 0 min 28 W/m 12,9 km/h (3 Bft) 95,74 %
11.10.2018 08:54 13,9 C 13,9 C 12,8 C 88 % 1010,6 hPa 0,0 l/m 0 min 0 min 28 W/m 16,1 km/h (3 Bft) 95,74 %
11.10.2018 08:56 13,9 C 13,9 C 12,8 C 88 % 1010,8 hPa 0,0 l/m 0 min 0 min 29 W/m 9,7 km/h (2 Bft) 93,62 %
11.10.2018 08:58 13,9 C 13,9 C 12,8 C 88 % 1010,8 hPa 0,0 l/m 0 min 0 min 30 W/m 16,1 km/h (3 Bft) 95,65 %
11.10.2018 09:00 13,9 C 13,9 C 12,8 C 88 % 1010,8 hPa 0,0 l/m 0 min 0 min 30 W/m 16,1 km/h (3 Bft) 95,74 %
11.10.2018 09:02 14,0 C 13,9 C 12,8 C 88 % 1010,7 hPa 0,0 l/m 0 min 0 min 31 W/m 16,1 km/h (3 Bft) 97,92 %
11.10.2018 09:04 14,1 C 13,9 C 12,8 C 88 % 1010,7 hPa 0,0 l/m 0 min 0 min 32 W/m 19,3 km/h (3 Bft) 95,74 %
11.10.2018 09:08 14,1 C 13,9 C 12,8 C 88 % 1010,7 hPa 0,0 l/m 0 min 0 min 32 W/m 16,1 km/h (3 Bft) 97,85 %
11.10.2018 09:10 14,2 C 13,9 C 12,8 C 88 % 1010,7 hPa 0,0 l/m 0 min 0 min 33 W/m 12,9 km/h (3 Bft) 95,74 %
11.10.2018 09:12 14,2 C 13,9 C 12,8 C 88 % 1010,6 hPa 0,0 l/m 0 min 0 min 33 W/m 19,3 km/h (3 Bft) 95,74 %
11.10.2018 09:14 14,2 C 14,4 C 12,8 C 87 % 1010,8 hPa 0,0 l/m 0 min 0 min 35 W/m 16,1 km/h (3 Bft) 97,87 %
11.10.2018 09:16 14,2 C 14,4 C 12,8 C 87 % 1010,8 hPa 0,0 l/m 0 min 0 min 35 W/m 12,9 km/h (3 Bft) 95,74 %
11.10.2018 09:18 14,2 C 14,4 C 12,8 C 87 % 1010,8 hPa 0,0 l/m 0 min 0 min 37 W/m 12,9 km/h (3 Bft) 97,87 %
11.10.2018 09:20 14,2 C 14,4 C 12,8 C 87 % 1010,8 hPa 0,0 l/m 0 min 0 min 37 W/m 16,1 km/h (3 Bft) 97,83 %
11.10.2018 09:22 14,2 C 14,4 C 12,8 C 87 % 1010,8 hPa 0,0 l/m 0 min 0 min 37 W/m 16,1 km/h (3 Bft) 93,62 %
11.10.2018 09:24 14,2 C 14,4 C 12,8 C 87 % 1010,8 hPa 0,0 l/m 0 min 0 min 39 W/m 16,1 km/h (3 Bft) 97,87 %
11.10.2018 09:26 14,3 C 14,4 C 12,8 C 87 % 1010,8 hPa 0,0 l/m 0 min 0 min 39 W/m 16,1 km/h (3 Bft) 100,00 %
11.10.2018 09:28 14,3 C 14,4 C 12,8 C 87 % 1010,9 hPa 0,0 l/m 0 min 0 min 39 W/m 19,3 km/h (3 Bft) 100,00 %
11.10.2018 09:30 14,4 C 14,4 C 12,8 C 87 % 1010,9 hPa 0,0 l/m 0 min 0 min 39 W/m 19,3 km/h (3 Bft) 97,87 %
11.10.2018 09:32 14,4 C 14,4 C 12,8 C 87 % 1011,0 hPa 0,0 l/m 0 min 0 min 40 W/m 22,5 km/h (4 Bft) 100,00 %
11.10.2018 09:34 14,4 C 14,4 C 12,8 C 87 % 1010,9 hPa 0,0 l/m 0 min 0 min 40 W/m 16,1 km/h (3 Bft) 100,00 %
11.10.2018 09:38 14,6 C 15,0 C 13,3 C 87 % 1010,9 hPa 0,0 l/m 0 min 0 min 42 W/m 22,5 km/h (4 Bft) 98,94 %
11.10.2018 09:40 14,6 C 15,0 C 13,3 C 87 % 1011,0 hPa 0,0 l/m 0 min 0 min 42 W/m 22,5 km/h (4 Bft) 100,00 %
11.10.2018 09:42 14,7 C 15,0 C 13,3 C 87 % 1011,0 hPa 0,0 l/m 0 min 0 min 61 W/m 16,1 km/h (3 Bft) 100,00 %
11.10.2018 09:44 14,7 C 15,0 C 13,3 C 87 % 1011,1 hPa 0,0 l/m 0 min 0 min 114 W/m 16,1 km/h (3 Bft) 100,00 %
11.10.2018 09:46 14,7 C 15,0 C 13,3 C 87 % 1011,0 hPa 0,0 l/m 0 min 0 min 121 W/m 16,1 km/h (3 Bft) 100,00 %
11.10.2018 09:48 14,8 C 15,0 C 13,3 C 87 % 1011,0 hPa 0,0 l/m 0 min 0 min 106 W/m 19,3 km/h (3 Bft) 100,00 %
11.10.2018 09:50 14,8 C 15,0 C 13,3 C 86 % 1011,0 hPa 0,0 l/m 0 min 0 min 90 W/m 19,3 km/h (3 Bft) 100,00 %
11.10.2018 09:52 14,9 C 15,6 C 13,3 C 86 % 1011,0 hPa 0,0 l/m 0 min 0 min 65 W/m 16,1 km/h (3 Bft) 100,00 %
11.10.2018 09:54 14,9 C 16,1 C 13,3 C 86 % 1011,0 hPa 0,0 l/m 0 min 0 min 57 W/m 19,3 km/h (3 Bft) 100,00 %
11.10.2018 09:56 15,0 C 16,7 C 13,3 C 86 % 1011,0 hPa 0,0 l/m 0 min 0 min 52 W/m 19,3 km/h (3 Bft) 100,00 %
11.10.2018 09:58 15,1 C 17,8 C 13,9 C 86 % 1011,0 hPa 0,0 l/m 0 min 0 min 52 W/m 19,3 km/h (3 Bft) 100,00 %
11.10.2018 10:00 15,1 C 18,9 C 13,3 C 86 % 1011,1 hPa 0,0 l/m 0 min 0 min 54 W/m 16,1 km/h (3 Bft) 100,00 %
11.10.2018 10:02 15,2 C 18,9 C 13,9 C 86 % 1011,1 hPa 0,0 l/m 0 min 0 min 59 W/m 19,3 km/h (3 Bft) 100,00 %
11.10.2018 10:04 15,2 C 19,4 C 13,9 C 86 % 1011,0 hPa 0,0 l/m 0 min 0 min 57 W/m 16,1 km/h (3 Bft) 100,00 %
11.10.2018 10:08 15,4 C 20,6 C 13,9 C 86 % 1011,0 hPa 0,0 l/m 0 min 0 min 67 W/m 25,7 km/h (4 Bft) 98,94 %
11.10.2018 10:10 15,5 C 20,6 C 13,9 C 85 % 1011,0 hPa 0,0 l/m 0 min 0 min 68 W/m 12,9 km/h (3 Bft) 100,00 %
11.10.2018 10:12 15,6 C 18,9 C 13,9 C 85 % 1011,0 hPa 0,0 l/m 0 min 0 min 56 W/m 12,9 km/h (3 Bft) 100,00 %
11.10.2018 10:14 15,7 C 18,3 C 13,9 C 85 % 1011,0 hPa 0,0 l/m 0 min 0 min 61 W/m 12,9 km/h (3 Bft) 100,00 %
11.10.2018 10:16 15,8 C 17,8 C 13,9 C 85 % 1011,0 hPa 0,0 l/m 0 min 0 min 69 W/m 22,5 km/h (4 Bft) 100,00 %
11.10.2018 10:18 15,8 C 17,2 C 13,9 C 84 % 1011,0 hPa 0,0 l/m 0 min 0 min 80 W/m 22,5 km/h (4 Bft) 97,87 %
11.10.2018 10:20 15,9 C 17,8 C 13,9 C 84 % 1011,1 hPa 0,0 l/m 0 min 0 min 93 W/m 16,1 km/h (3 Bft) 98,28 %
11.10.2018 10:22 16,0 C 18,9 C 13,9 C 84 % 1011,1 hPa 0,0 l/m 0 min 0 min 100 W/m 12,9 km/h (3 Bft) 100,00 %
11.10.2018 10:24 16,1 C 19,4 C 13,9 C 84 % 1011,1 hPa 0,0 l/m 0 min 0 min 96 W/m 12,9 km/h (3 Bft) 100,00 %
11.10.2018 10:26 16,2 C 20,6 C 13,9 C 84 % 1011,0 hPa 0,0 l/m 0 min 0 min 102 W/m 9,7 km/h (2 Bft) 100,00 %
11.10.2018 10:28 16,3 C 21,1 C 13,9 C 83 % 1011,1 hPa 0,0 l/m 0 min 0 min 96 W/m 19,3 km/h (3 Bft) 97,87 %
11.10.2018 10:30 16,4 C 21,7 C 13,9 C 83 % 1011,0 hPa 0,0 l/m 0 min 0 min 104 W/m 22,5 km/h (4 Bft) 97,87 %
11.10.2018 10:32 16,5 C 22,8 C 14,4 C 83 % 1011,0 hPa 0,0 l/m 0 min 0 min 159 W/m 16,1 km/h (3 Bft) 97,87 %
11.10.2018 10:34 16,7 C 23,3 C 14,4 C 83 % 1011,1 hPa 0,0 l/m 2 min 0 min 213 W/m 12,9 km/h (3 Bft) 97,83 %
11.10.2018 10:38 16,9 C 23,9 C 14,4 C 82 % 1011,0 hPa 0,0 l/m 4 min 0 min 280 W/m 16,1 km/h (3 Bft) 97,87 %
11.10.2018 10:40 17,1 C 23,3 C 14,4 C 82 % 1011,0 hPa 0,0 l/m 2 min 0 min 240 W/m 16,1 km/h (3 Bft) 95,74 %
11.10.2018 10:42 17,2 C 22,2 C 14,4 C 81 % 1011,0 hPa 0,0 l/m 0 min 0 min 169 W/m 12,9 km/h (3 Bft) 97,87 %
11.10.2018 10:44 17,3 C 21,7 C 14,4 C 80 % 1011,0 hPa 0,0 l/m 2 min 0 min 203 W/m 12,9 km/h (3 Bft) 97,87 %
11.10.2018 10:46 17,4 C 20,6 C 14,4 C 80 % 1011,0 hPa 0,0 l/m 0 min 0 min 162 W/m 16,1 km/h (3 Bft) 97,83 %
11.10.2018 10:48 17,6 C 19,4 C 15,0 C 79 % 1011,1 hPa 0,0 l/m 0 min 0 min 163 W/m 12,9 km/h (3 Bft) 97,87 %
11.10.2018 10:50 17,7 C 19,4 C 15,0 C 79 % 1011,1 hPa 0,0 l/m 0 min 0 min 189 W/m 16,1 km/h (3 Bft) 96,61 %
11.10.2018 10:52 17,7 C 20,0 C 15,0 C 79 % 1011,1 hPa 0,0 l/m 0 min 0 min 196 W/m 19,3 km/h (3 Bft) 97,14 %
11.10.2018 10:54 17,8 C 20,0 C 15,0 C 79 % 1011,0 hPa 0,0 l/m 0 min 0 min 194 W/m 9,7 km/h (2 Bft) 97,87 %
11.10.2018 10:56 17,9 C 20,0 C 15,0 C 79 % 1011,0 hPa 0,0 l/m 0 min 0 min 176 W/m 6,4 km/h (2 Bft) 97,87 %
11.10.2018 10:58 17,9 C 19,4 C 15,0 C 78 % 1011,0 hPa 0,0 l/m 0 min 0 min 172 W/m 16,1 km/h (3 Bft) 95,65 %
11.10.2018 11:00 17,9 C 19,4 C 15,0 C 78 % 1011,0 hPa 0,0 l/m 0 min 0 min 174 W/m 16,1 km/h (3 Bft) 97,87 %
11.10.2018 11:02 18,0 C 20,0 C 15,0 C 78 % 1011,0 hPa 0,0 l/m 0 min 0 min 179 W/m 12,9 km/h (3 Bft) 97,92 %
11.10.2018 11:04 18,1 C 19,4 C 15,0 C 78 % 1011,0 hPa 0,0 l/m 0 min 0 min 167 W/m 16,1 km/h (3 Bft) 95,45 %
11.10.2018 11:08 18,2 C 20,6 C 15,0 C 78 % 1011,1 hPa 0,0 l/m 0 min 0 min 168 W/m 16,1 km/h (3 Bft) 92,55 %
11.10.2018 11:10 18,2 C 22,2 C 15,0 C 78 % 1011,1 hPa 0,0 l/m 0 min 0 min 201 W/m 12,9 km/h (3 Bft) 93,48 %
11.10.2018 11:12 18,3 C 23,3 C 15,0 C 78 % 1011,1 hPa 0,0 l/m 0 min 0 min 185 W/m 16,1 km/h (3 Bft) 97,87 %
11.10.2018 11:14 18,3 C 23,3 C 15,6 C 77 % 1011,1 hPa 0,0 l/m 0 min 0 min 138 W/m 9,7 km/h (2 Bft) 95,74 %
11.10.2018 11:16 18,4 C 22,8 C 15,0 C 77 % 1011,1 hPa 0,0 l/m 0 min 0 min 118 W/m 9,7 km/h (2 Bft) 95,74 %
11.10.2018 11:18 18,5 C 23,9 C 15,6 C 77 % 1011,0 hPa 0,0 l/m 0 min 0 min 160 W/m 12,9 km/h (3 Bft) 95,74 %
11.10.2018 11:20 18,6 C 25,0 C 15,6 C 77 % 1011,0 hPa 0,0 l/m 0 min 0 min 158 W/m 16,1 km/h (3 Bft) 96,55 %
11.10.2018 11:22 18,7 C 25,6 C 15,6 C 77 % 1011,0 hPa 0,0 l/m 0 min 0 min 159 W/m 12,9 km/h (3 Bft) 95,74 %
11.10.2018 11:24 18,9 C 24,4 C 15,6 C 76 % 1010,9 hPa 0,0 l/m 0 min 0 min 112 W/m 22,5 km/h (4 Bft) 94,29 %
11.10.2018 11:26 19,0 C 24,4 C 15,6 C 76 % 1011,0 hPa 0,0 l/m 0 min 0 min 117 W/m 9,7 km/h (2 Bft) 93,62 %
11.10.2018 11:28 19,1 C 23,9 C 15,6 C 75 % 1011,1 hPa 0,0 l/m 0 min 0 min 122 W/m 9,7 km/h (2 Bft) 95,74 %
11.10.2018 11:30 19,2 C 23,3 C 15,6 C 75 % 1011,1 hPa 0,0 l/m 0 min 0 min 142 W/m 9,7 km/h (2 Bft) 97,87 %
11.10.2018 11:32 19,3 C 23,3 C 16,1 C 75 % 1011,0 hPa 0,0 l/m 0 min 0 min 162 W/m 9,7 km/h (2 Bft) 97,87 %
11.10.2018 11:34 19,4 C 23,3 C 16,1 C 75 % 1011,0 hPa 0,0 l/m 0 min 0 min 153 W/m 9,7 km/h (2 Bft) 95,65 %
11.10.2018 11:38 19,6 C 23,9 C 16,1 C 74 % 1011,0 hPa 0,0 l/m 0 min 0 min 141 W/m 12,9 km/h (3 Bft) 95,74 %
11.10.2018 11:40 19,7 C 25,0 C 16,1 C 74 % 1010,9 hPa 0,0 l/m 0 min 0 min 126 W/m 12,9 km/h (3 Bft) 93,62 %
11.10.2018 11:42 19,8 C 25,0 C 16,1 C 74 % 1010,9 hPa 0,0 l/m 0 min 0 min 130 W/m 16,1 km/h (3 Bft) 95,74 %
11.10.2018 11:44 19,9 C 26,1 C 16,1 C 74 % 1011,0 hPa 0,0 l/m 0 min 0 min 126 W/m 12,9 km/h (3 Bft) 97,87 %
11.10.2018 11:46 20,1 C 26,1 C 16,1 C 73 % 1010,9 hPa 0,0 l/m 0 min 0 min 119 W/m 16,1 km/h (3 Bft) 95,74 %
11.10.2018 11:48 20,2 C 27,2 C 16,7 C 73 % 1010,9 hPa 0,0 l/m 0 min 0 min 114 W/m 9,7 km/h (2 Bft) 97,87 %
11.10.2018 11:50 20,3 C 27,8 C 16,7 C 73 % 1011,0 hPa 0,0 l/m 0 min 0 min 109 W/m 9,7 km/h (2 Bft) 96,61 %
11.10.2018 11:52 20,4 C 26,7 C 16,7 C 73 % 1010,9 hPa 0,0 l/m 0 min 0 min 103 W/m 16,1 km/h (3 Bft) 91,43 %
11.10.2018 11:54 20,5 C 25,6 C 16,1 C 72 % 1010,9 hPa 0,0 l/m 0 min 0 min 101 W/m 12,9 km/h (3 Bft) 95,74 %
11.10.2018 11:56 20,6 C 26,1 C 16,1 C 71 % 1010,9 hPa 0,0 l/m 0 min 0 min 111 W/m 12,9 km/h (3 Bft) 97,83 %
11.10.2018 11:58 20,7 C 26,1 C 16,1 C 71 % 1010,9 hPa 0,0 l/m 0 min 0 min 122 W/m 12,9 km/h (3 Bft) 97,87 %
11.10.2018 12:00 20,8 C 26,1 C 16,7 C 71 % 1010,9 hPa 0,0 l/m 0 min 0 min 149 W/m 9,7 km/h (2 Bft) 97,87 %
11.10.2018 12:02 20,9 C 25,6 C 16,7 C 71 % 1010,8 hPa 0,0 l/m 0 min 0 min 197 W/m 9,7 km/h (2 Bft) 97,87 %
11.10.2018 12:04 21,0 C 25,0 C 16,7 C 71 % 1010,9 hPa 0,0 l/m 0 min 0 min 176 W/m 6,4 km/h (2 Bft) 97,87 %
11.10.2018 12:08 21,1 C 23,9 C 16,7 C 70 % 1010,8 hPa 0,0 l/m 0 min 0 min 138 W/m 9,7 km/h (2 Bft) 97,87 %
11.10.2018 12:10 21,2 C 23,9 C 16,7 C 70 % 1010,8 hPa 0,0 l/m 0 min 0 min 154 W/m 12,9 km/h (3 Bft) 97,83 %
11.10.2018 12:12 21,2 C 23,9 C 16,7 C 69 % 1010,7 hPa 0,0 l/m 0 min 0 min 165 W/m 19,3 km/h (3 Bft) 97,87 %
11.10.2018 12:14 21,2 C 23,9 C 16,7 C 69 % 1010,8 hPa 0,0 l/m 0 min 0 min 179 W/m 12,9 km/h (3 Bft) 95,74 %
11.10.2018 12:16 21,3 C 23,3 C 16,7 C 69 % 1010,7 hPa 0,0 l/m 0 min 0 min 180 W/m 12,9 km/h (3 Bft) 98,00 %
11.10.2018 12:18 21,3 C 23,9 C 16,7 C 69 % 1010,8 hPa 0,0 l/m 0 min 0 min 181 W/m 16,1 km/h (3 Bft) 95,65 %
11.10.2018 12:20 21,4 C 23,9 C 16,7 C 68 % 1010,8 hPa 0,0 l/m 0 min 0 min 175 W/m 12,9 km/h (3 Bft) 94,92 %
11.10.2018 12:22 21,4 C 24,4 C 16,7 C 68 % 1010,8 hPa 0,0 l/m 0 min 0 min 180 W/m 12,9 km/h (3 Bft) 97,14 %
11.10.2018 12:24 21,4 C 24,4 C 16,7 C 68 % 1010,8 hPa 0,0 l/m 0 min 0 min 180 W/m 12,9 km/h (3 Bft) 97,87 %
11.10.2018 12:26 21,4 C 25,6 C 16,7 C 68 % 1010,7 hPa 0,0 l/m 0 min 0 min 184 W/m 9,7 km/h (2 Bft) 97,87 %
11.10.2018 12:28 21,5 C 25,0 C 17,2 C 68 % 1010,7 hPa 0,0 l/m 0 min 0 min 193 W/m 16,1 km/h (3 Bft) 97,87 %
11.10.2018 12:30 21,6 C 24,4 C 17,2 C 68 % 1010,7 hPa 0,0 l/m 0 min 0 min 190 W/m 19,3 km/h (3 Bft) 97,83 %
11.10.2018 12:32 21,6 C 23,9 C 17,2 C 68 % 1010,7 hPa 0,0 l/m 0 min 0 min 204 W/m 19,3 km/h (3 Bft) 97,87 %
11.10.2018 12:34 21,6 C 23,3 C 17,2 C 68 % 1010,7 hPa 0,0 l/m 0 min 0 min 193 W/m 12,9 km/h (3 Bft) 97,87 %
11.10.2018 12:38 21,6 C 22,8 C 17,2 C 68 % 1010,7 hPa 0,0 l/m 0 min 0 min 207 W/m 12,9 km/h (3 Bft) 97,87 %
11.10.2018 12:40 21,6 C 22,2 C 17,2 C 68 % 1010,7 hPa 0,0 l/m 0 min 0 min 206 W/m 9,7 km/h (2 Bft) 97,87 %
11.10.2018 12:42 21,6 C 22,2 C 17,2 C 68 % 1010,7 hPa 0,0 l/m 0 min 0 min 217 W/m 16,1 km/h (3 Bft) 95,65 %
11.10.2018 12:44 21,6 C 22,2 C 17,2 C 68 % 1010,6 hPa 0,0 l/m 0 min 0 min 218 W/m 12,9 km/h (3 Bft) 97,87 %
11.10.2018 12:46 21,5 C 21,7 C 17,2 C 68 % 1010,6 hPa 0,0 l/m 0 min 0 min 217 W/m 12,9 km/h (3 Bft) 100,00 %
11.10.2018 12:48 21,5 C 21,1 C 16,7 C 67 % 1010,7 hPa 0,0 l/m 0 min 0 min 210 W/m 19,3 km/h (3 Bft) 97,87 %
11.10.2018 12:50 21,5 C 21,1 C 17,2 C 68 % 1010,5 hPa 0,0 l/m 0 min 0 min 205 W/m 12,9 km/h (3 Bft) 100,00 %
11.10.2018 12:52 21,5 C 21,1 C 17,2 C 68 % 1010,5 hPa 0,0 l/m 0 min 0 min 191 W/m 12,9 km/h (3 Bft) 97,87 %
11.10.2018 12:54 21,4 C 21,1 C 17,2 C 68 % 1010,4 hPa 0,0 l/m 0 min 0 min 188 W/m 16,1 km/h (3 Bft) 100,00 %
11.10.2018 12:56 21,4 C 21,1 C 17,2 C 68 % 1010,5 hPa 0,0 l/m 0 min 0 min 192 W/m 16,1 km/h (3 Bft) 100,00 %
11.10.2018 12:58 21,4 C 21,1 C 17,2 C 68 % 1010,4 hPa 0,0 l/m 0 min 0 min 198 W/m 12,9 km/h (3 Bft) 100,00 %
11.10.2018 13:00 21,4 C 21,1 C 17,2 C 68 % 1010,4 hPa 0,0 l/m 0 min 0 min 229 W/m 16,1 km/h (3 Bft) 100,00 %
11.10.2018 13:02 21,3 C 21,1 C 17,2 C 68 % 1010,4 hPa 0,0 l/m 2 min 0 min 271 W/m 9,7 km/h (2 Bft) 100,00 %
11.10.2018 13:04 21,3 C 21,7 C 17,2 C 69 % 1010,4 hPa 0,0 l/m 2 min 0 min 414 W/m 12,9 km/h (3 Bft) 100,00 %
11.10.2018 13:08 21,3 C 22,2 C 17,8 C 69 % 1010,4 hPa 0,0 l/m 4 min 0 min 415 W/m 19,3 km/h (3 Bft) 100,00 %
11.10.2018 13:10 21,3 C 22,2 C 18,3 C 69 % 1010,3 hPa 0,0 l/m 2 min 0 min 356 W/m 12,9 km/h (3 Bft) 100,00 %
11.10.2018 13:12 21,4 C 22,2 C 17,8 C 69 % 1010,3 hPa 0,0 l/m 2 min 0 min 454 W/m 12,9 km/h (3 Bft) 100,00 %
11.10.2018 13:14 21,4 C 22,2 C 18,3 C 69 % 1010,3 hPa 0,0 l/m 2 min 0 min 332 W/m 12,9 km/h (3 Bft) 100,00 %
11.10.2018 13:16 21,4 C 22,2 C 17,8 C 68 % 1010,3 hPa 0,0 l/m 0 min 0 min 258 W/m 9,7 km/h (2 Bft) 97,83 %
11.10.2018 13:18 21,4 C 22,2 C 17,8 C 68 % 1010,3 hPa 0,0 l/m 2 min 0 min 265 W/m 12,9 km/h (3 Bft) 97,87 %
11.10.2018 13:20 21,4 C 22,2 C 17,8 C 68 % 1010,2 hPa 0,0 l/m 0 min 0 min 225 W/m 9,7 km/h (2 Bft) 97,87 %
11.10.2018 13:22 21,4 C 22,2 C 17,8 C 68 % 1010,2 hPa 0,0 l/m 0 min 0 min 247 W/m 12,9 km/h (3 Bft) 97,87 %
11.10.2018 13:24 21,4 C 21,7 C 17,8 C 68 % 1010,2 hPa 0,0 l/m 0 min 0 min 243 W/m 12,9 km/h (3 Bft) 97,87 %
11.10.2018 13:26 21,5 C 21,7 C 17,8 C 68 % 1010,2 hPa 0,0 l/m 0 min 0 min 230 W/m 12,9 km/h (3 Bft) 95,74 %
11.10.2018 13:28 21,5 C 21,7 C 17,8 C 68 % 1010,2 hPa 0,0 l/m 0 min 0 min 240 W/m 12,9 km/h (3 Bft) 97,87 %
11.10.2018 13:30 21,5 C 21,7 C 17,8 C 68 % 1010,2 hPa 0,0 l/m 2 min 0 min 310 W/m 19,3 km/h (3 Bft) 93,48 %
11.10.2018 13:32 21,5 C 21,7 C 17,8 C 68 % 1010,3 hPa 0,0 l/m 0 min 0 min 219 W/m 22,5 km/h (4 Bft) 95,83 %
11.10.2018 13:34 21,5 C 21,7 C 17,8 C 68 % 1010,3 hPa 0,0 l/m 0 min 0 min 213 W/m 16,1 km/h (3 Bft) 95,74 %
11.10.2018 13:38 21,5 C 21,1 C 17,8 C 67 % 1010,2 hPa 0,0 l/m 0 min 0 min 194 W/m 16,1 km/h (3 Bft) 95,70 %
11.10.2018 13:40 21,5 C 21,1 C 17,8 C 67 % 1010,3 hPa 0,0 l/m 0 min 0 min 177 W/m 12,9 km/h (3 Bft) 95,74 %
11.10.2018 13:42 21,5 C 21,1 C 17,8 C 68 % 1010,2 hPa 0,0 l/m 0 min 0 min 166 W/m 9,7 km/h (2 Bft) 95,74 %
11.10.2018 13:44 21,5 C 21,1 C 17,8 C 68 % 1010,2 hPa 0,0 l/m 0 min 0 min 155 W/m 9,7 km/h (2 Bft) 93,62 %
11.10.2018 13:46 21,5 C 21,1 C 17,8 C 68 % 1010,2 hPa 0,0 l/m 0 min 0 min 142 W/m 9,7 km/h (2 Bft) 95,65 %
11.10.2018 13:48 21,5 C 21,1 C 17,8 C 68 % 1010,2 hPa 0,0 l/m 0 min 0 min 133 W/m 12,9 km/h (3 Bft) 95,74 %
11.10.2018 13:50 21,4 C 21,1 C 17,8 C 68 % 1010,2 hPa 0,0 l/m 0 min 0 min 127 W/m 9,7 km/h (2 Bft) 95,74 %
11.10.2018 13:52 21,4 C 21,1 C 17,8 C 69 % 1010,2 hPa 0,0 l/m 0 min 0 min 127 W/m 6,4 km/h (2 Bft) 95,83 %
11.10.2018 13:54 21,4 C 20,6 C 17,8 C 69 % 1010,2 hPa 0,0 l/m 0 min 0 min 131 W/m 12,9 km/h (3 Bft) 93,62 %
11.10.2018 13:56 21,4 C 20,6 C 17,8 C 69 % 1010,1 hPa 0,0 l/m 0 min 0 min 136 W/m 9,7 km/h (2 Bft) 95,74 %
11.10.2018 13:58 21,4 C 20,6 C 17,8 C 69 % 1010,1 hPa 0,0 l/m 0 min 0 min 144 W/m 16,1 km/h (3 Bft) 95,65 %
11.10.2018 14:00 21,4 C 21,1 C 17,8 C 69 % 1010,2 hPa 0,0 l/m 0 min 0 min 156 W/m 16,1 km/h (3 Bft) 93,62 %
11.10.2018 14:02 21,4 C 21,1 C 17,8 C 69 % 1010,1 hPa 0,0 l/m 0 min 0 min 173 W/m 16,1 km/h (3 Bft) 95,74 %
11.10.2018 14:04 21,3 C 21,1 C 17,8 C 69 % 1010,1 hPa 0,0 l/m 0 min 0 min 196 W/m 12,9 km/h (3 Bft) 95,74 %
11.10.2018 14:08 21,3 C 21,1 C 18,3 C 69 % 1010,1 hPa 0,0 l/m 0 min 0 min 194 W/m 16,1 km/h (3 Bft) 95,74 %
11.10.2018 14:10 21,3 C 21,1 C 18,3 C 69 % 1010,1 hPa 0,0 l/m 0 min 0 min 175 W/m 12,9 km/h (3 Bft) 97,83 %
11.10.2018 14:12 21,3 C 21,1 C 18,3 C 69 % 1010,0 hPa 0,0 l/m 0 min 0 min 163 W/m 16,1 km/h (3 Bft) 97,87 %
11.10.2018 14:14 21,3 C 21,1 C 18,3 C 69 % 1010,0 hPa 0,0 l/m 0 min 0 min 156 W/m 16,1 km/h (3 Bft) 95,74 %
11.10.2018 14:16 21,3 C 21,1 C 18,3 C 69 % 1010,0 hPa 0,0 l/m 0 min 0 min 158 W/m 19,3 km/h (3 Bft) 100,00 %
11.10.2018 14:18 21,3 C 21,1 C 18,3 C 69 % 1010,0 hPa 0,0 l/m 0 min 0 min 164 W/m 16,1 km/h (3 Bft) 97,87 %
11.10.2018 14:20 21,3 C 21,1 C 17,8 C 69 % 1010,0 hPa 0,0 l/m 0 min 0 min 166 W/m 12,9 km/h (3 Bft) 100,00 %
11.10.2018 14:22 21,3 C 21,1 C 17,8 C 69 % 1010,0 hPa 0,0 l/m 0 min 0 min 156 W/m 16,1 km/h (3 Bft) 100,00 %
11.10.2018 14:24 21,3 C 21,1 C 18,3 C 69 % 1009,9 hPa 0,0 l/m 0 min 0 min 142 W/m 19,3 km/h (3 Bft) 97,87 %
11.10.2018 14:26 21,3 C 21,1 C 18,3 C 69 % 1010,0 hPa 0,0 l/m 0 min 0 min 131 W/m 9,7 km/h (2 Bft) 97,87 %
11.10.2018 14:28 21,3 C 21,1 C 18,3 C 69 % 1009,9 hPa 0,0 l/m 0 min 0 min 129 W/m 16,1 km/h (3 Bft) 100,00 %
11.10.2018 14:30 21,3 C 21,1 C 18,3 C 69 % 1009,9 hPa 0,0 l/m 0 min 0 min 134 W/m 12,9 km/h (3 Bft) 100,00 %
11.10.2018 14:32 21,3 C 21,1 C 18,3 C 69 % 1009,9 hPa 0,0 l/m 0 min 0 min 139 W/m 12,9 km/h (3 Bft) 100,00 %
11.10.2018 14:34 21,3 C 21,1 C 18,3 C 69 % 1010,0 hPa 0,0 l/m 0 min 0 min 142 W/m 12,9 km/h (3 Bft) 100,00 %
11.10.2018 14:37 21,3 C 21,1 C 18,3 C 68 % 1010,0 hPa 0,0 l/m 0 min 0 min 142 W/m 16,1 km/h (3 Bft) 100,00 %
11.10.2018 14:38 21,3 C 21,1 C 18,3 C 68 % 1010,0 hPa 0,0 l/m 0 min 0 min 142 W/m 22,5 km/h (4 Bft) 100,00 %
11.10.2018 14:40 21,3 C 21,1 C 18,3 C 68 % 1009,9 hPa 0,0 l/m 0 min 0 min 142 W/m 22,5 km/h (4 Bft) 100,00 %
11.10.2018 14:42 21,3 C 21,1 C 18,3 C 68 % 1010,0 hPa 0,0 l/m 0 min 0 min 142 W/m 16,1 km/h (3 Bft) 100,00 %
11.10.2018 14:44 21,3 C 21,1 C 18,3 C 68 % 1010,0 hPa 0,0 l/m 0 min 0 min 145 W/m 9,7 km/h (2 Bft) 100,00 %
11.10.2018 14:46 21,3 C 21,1 C 18,3 C 68 % 1010,0 hPa 0,0 l/m 0 min 0 min 146 W/m 19,3 km/h (3 Bft) 100,00 %
11.10.2018 14:48 21,3 C 21,1 C 18,3 C 68 % 1010,0 hPa 0,0 l/m 0 min 0 min 148 W/m 19,3 km/h (3 Bft) 97,87 %
11.10.2018 14:50 21,3 C 21,1 C 18,3 C 68 % 1010,1 hPa 0,0 l/m 0 min 0 min 150 W/m 12,9 km/h (3 Bft) 97,87 %
11.10.2018 14:52 21,3 C 21,1 C 18,3 C 68 % 1010,1 hPa 0,0 l/m 0 min 0 min 155 W/m 16,1 km/h (3 Bft) 100,00 %
11.10.2018 14:54 21,3 C 21,1 C 18,3 C 68 % 1010,1 hPa 0,0 l/m 0 min 0 min 157 W/m 16,1 km/h (3 Bft) 100,00 %
11.10.2018 14:56 21,3 C 21,1 C 18,3 C 68 % 1010,1 hPa 0,0 l/m 0 min 0 min 156 W/m 9,7 km/h (2 Bft) 97,83 %
11.10.2018 14:58 21,3 C 21,1 C 18,3 C 68 % 1010,1 hPa 0,0 l/m 0 min 0 min 150 W/m 16,1 km/h (3 Bft) 97,87 %
11.10.2018 15:00 21,4 C 21,1 C 18,3 C 68 % 1010,2 hPa 0,0 l/m 0 min 0 min 137 W/m 19,3 km/h (3 Bft) 97,87 %
11.10.2018 15:02 21,4 C 21,1 C 18,3 C 68 % 1010,2 hPa 0,0 l/m 0 min 0 min 128 W/m 9,7 km/h (2 Bft) 100,00 %
11.10.2018 15:04 21,4 C 21,1 C 18,3 C 68 % 1010,2 hPa 0,0 l/m 0 min 0 min 125 W/m 12,9 km/h (3 Bft) 100,00 %
11.10.2018 15:08 21,4 C 21,1 C 18,3 C 68 % 1010,0 hPa 0,0 l/m 0 min 0 min 127 W/m 12,9 km/h (3 Bft) 97,87 %
11.10.2018 15:12 21,4 C 21,1 C 18,3 C 68 % 1009,9 hPa 0,0 l/m 0 min 0 min 128 W/m 22,5 km/h (4 Bft) 97,85 %
11.10.2018 15:14 21,4 C 21,1 C 18,3 C 68 % 1010,0 hPa 0,0 l/m 0 min 0 min 131 W/m 16,1 km/h (3 Bft) 95,74 %
11.10.2018 15:16 21,4 C 21,1 C 18,3 C 67 % 1010,0 hPa 0,0 l/m 0 min 0 min 135 W/m 22,5 km/h (4 Bft) 97,87 %
11.10.2018 15:18 21,4 C 21,1 C 18,3 C 67 % 1010,1 hPa 0,0 l/m 0 min 0 min 143 W/m 12,9 km/h (3 Bft) 95,74 %
11.10.2018 15:20 21,4 C 21,1 C 18,9 C 67 % 1010,1 hPa 0,0 l/m 0 min 0 min 149 W/m 19,3 km/h (3 Bft) 97,83 %
11.10.2018 15:22 21,4 C 21,1 C 18,3 C 68 % 1010,0 hPa 0,0 l/m 0 min 0 min 156 W/m 16,1 km/h (3 Bft) 97,87 %
11.10.2018 15:24 21,4 C 21,1 C 18,9 C 67 % 1010,0 hPa 0,0 l/m 0 min 0 min 158 W/m 12,9 km/h (3 Bft) 97,87 %
11.10.2018 15:26 21,4 C 21,1 C 18,3 C 68 % 1010,0 hPa 0,0 l/m 0 min 0 min 157 W/m 12,9 km/h (3 Bft) 97,87 %
11.10.2018 15:28 21,4 C 21,1 C 18,3 C 68 % 1010,1 hPa 0,0 l/m 0 min 0 min 154 W/m 16,1 km/h (3 Bft) 97,87 %
11.10.2018 15:30 21,4 C 21,1 C 18,3 C 68 % 1010,1 hPa 0,0 l/m 0 min 0 min 150 W/m 9,7 km/h (2 Bft) 97,87 %
11.10.2018 15:32 21,5 C 21,1 C 18,3 C 68 % 1010,1 hPa 0,0 l/m 0 min 0 min 151 W/m 16,1 km/h (3 Bft) 95,65 %
11.10.2018 15:34 21,5 C 21,1 C 18,3 C 68 % 1010,2 hPa 0,0 l/m 0 min 0 min 158 W/m 12,9 km/h (3 Bft) 97,87 %
11.10.2018 15:38 21,6 C 21,7 C 18,3 C 68 % 1010,1 hPa 0,0 l/m 0 min 0 min 176 W/m 16,1 km/h (3 Bft) 97,87 %
11.10.2018 15:40 21,6 C 21,7 C 18,3 C 68 % 1010,1 hPa 0,0 l/m 0 min 0 min 184 W/m 12,9 km/h (3 Bft) 97,87 %
11.10.2018 15:42 21,6 C 21,7 C 18,3 C 68 % 1010,1 hPa 0,0 l/m 0 min 0 min 196 W/m 19,3 km/h (3 Bft) 97,83 %
11.10.2018 15:44 21,6 C 21,7 C 18,3 C 68 % 1010,0 hPa 0,0 l/m 2 min 0 min 202 W/m 12,9 km/h (3 Bft) 97,87 %
11.10.2018 15:46 21,6 C 21,7 C 18,3 C 67 % 1009,9 hPa 0,0 l/m 2 min 0 min 225 W/m 9,7 km/h (2 Bft) 97,87 %
11.10.2018 15:48 21,6 C 21,7 C 18,3 C 67 % 1009,9 hPa 0,0 l/m 2 min 0 min 248 W/m 25,7 km/h (4 Bft) 97,87 %
11.10.2018 15:50 21,7 C 21,7 C 18,9 C 67 % 1009,9 hPa 0,0 l/m 2 min 0 min 249 W/m 29,0 km/h (5 Bft) 97,87 %
11.10.2018 15:52 21,7 C 21,7 C 18,9 C 67 % 1009,9 hPa 0,0 l/m 2 min 0 min 220 W/m 22,5 km/h (4 Bft) 97,87 %
11.10.2018 15:54 21,7 C 21,7 C 18,9 C 67 % 1009,9 hPa 0,0 l/m 2 min 0 min 216 W/m 22,5 km/h (4 Bft) 97,83 %
11.10.2018 15:56 21,7 C 21,7 C 18,9 C 67 % 1009,9 hPa 0,0 l/m 2 min 0 min 205 W/m 29,0 km/h (5 Bft) 97,87 %
11.10.2018 15:58 21,8 C 21,7 C 18,9 C 67 % 1009,9 hPa 0,0 l/m 2 min 0 min 210 W/m 19,3 km/h (3 Bft) 93,62 %
11.10.2018 16:00 21,8 C 22,2 C 18,9 C 67 % 1009,9 hPa 0,0 l/m 2 min 0 min 308 W/m 22,5 km/h (4 Bft) 97,87 %
11.10.2018 16:02 21,8 C 22,2 C 19,4 C 67 % 1009,8 hPa 0,0 l/m 2 min 0 min 391 W/m 19,3 km/h (3 Bft) 100,00 %
11.10.2018 16:04 21,9 C 22,8 C 19,4 C 67 % 1009,9 hPa 0,0 l/m 2 min 0 min 446 W/m 9,7 km/h (2 Bft) 97,87 %
11.10.2018 16:08 22,0 C 22,8 C 19,4 C 67 % 1009,8 hPa 0,0 l/m 4 min 0 min 488 W/m 19,3 km/h (3 Bft) 98,00 %
11.10.2018 16:10 22,1 C 23,3 C 19,4 C 67 % 1009,7 hPa 0,0 l/m 2 min 0 min 508 W/m 16,1 km/h (3 Bft) 97,87 %
11.10.2018 16:12 22,2 C 23,3 C 19,4 C 66 % 1009,8 hPa 0,0 l/m 2 min 0 min 366 W/m 25,7 km/h (4 Bft) 97,87 %
11.10.2018 16:14 22,3 C 23,3 C 19,4 C 66 % 1009,7 hPa 0,0 l/m 2 min 0 min 363 W/m 12,9 km/h (3 Bft) 97,87 %
11.10.2018 16:16 22,3 C 23,3 C 19,4 C 66 % 1009,8 hPa 0,0 l/m 2 min 0 min 489 W/m 22,5 km/h (4 Bft) 97,56 %
11.10.2018 16:18 22,4 C 23,9 C 19,4 C 66 % 1009,8 hPa 0,0 l/m 2 min 0 min 471 W/m 16,1 km/h (3 Bft) 97,87 %
11.10.2018 16:20 22,6 C 23,3 C 19,4 C 65 % 1009,8 hPa 0,0 l/m 2 min 0 min 332 W/m 16,1 km/h (3 Bft) 95,74 %
11.10.2018 16:22 22,6 C 23,3 C 19,4 C 65 % 1009,8 hPa 0,0 l/m 2 min 0 min 330 W/m 22,5 km/h (4 Bft) 97,87 %
11.10.2018 16:24 22,7 C 23,3 C 19,4 C 64 % 1009,7 hPa 0,0 l/m 2 min 0 min 272 W/m 16,1 km/h (3 Bft) 97,83 %
11.10.2018 16:26 22,7 C 23,3 C 19,4 C 64 % 1009,7 hPa 0,0 l/m 2 min 0 min 259 W/m 19,3 km/h (3 Bft) 95,74 %
11.10.2018 16:28 22,8 C 22,8 C 19,4 C 64 % 1009,7 hPa 0,0 l/m 2 min 0 min 244 W/m 22,5 km/h (4 Bft) 95,74 %
11.10.2018 16:30 22,8 C 22,8 C 20,0 C 64 % 1009,7 hPa 0,0 l/m 2 min 0 min 251 W/m 22,5 km/h (4 Bft) 95,74 %
11.10.2018 16:32 22,8 C 22,8 C 20,0 C 64 % 1009,7 hPa 0,0 l/m 2 min 0 min 244 W/m 16,1 km/h (3 Bft) 95,74 %
11.10.2018 16:34 22,9 C 22,8 C 20,0 C 63 % 1009,7 hPa 0,0 l/m 2 min 0 min 245 W/m 29,0 km/h (5 Bft) 93,62 %
11.10.2018 16:38 22,9 C 23,3 C 20,0 C 64 % 1009,7 hPa 0,0 l/m 4 min 0 min 231 W/m 19,3 km/h (3 Bft) 93,55 %
11.10.2018 16:40 22,9 C 22,8 C 19,4 C 64 % 1009,6 hPa 0,0 l/m 2 min 0 min 208 W/m 12,9 km/h (3 Bft) 95,74 %
11.10.2018 16:42 22,9 C 22,8 C 19,4 C 64 % 1009,5 hPa 0,0 l/m 2 min 0 min 195 W/m 22,5 km/h (4 Bft) 95,74 %
11.10.2018 16:44 22,9 C 22,8 C 19,4 C 64 % 1009,5 hPa 0,0 l/m 2 min 0 min 158 W/m 22,5 km/h (4 Bft) 95,74 %
11.10.2018 16:46 22,9 C 22,2 C 18,9 C 63 % 1009,5 hPa 0,0 l/m 0 min 0 min 144 W/m 22,5 km/h (4 Bft) 95,74 %
11.10.2018 16:48 22,9 C 22,2 C 19,4 C 64 % 1009,5 hPa 0,0 l/m 0 min 0 min 129 W/m 25,7 km/h (4 Bft) 95,65 %
11.10.2018 16:50 22,8 C 22,2 C 18,9 C 64 % 1009,5 hPa 0,0 l/m 0 min 0 min 114 W/m 32,2 km/h (5 Bft) 95,74 %
11.10.2018 16:52 22,8 C 22,2 C 19,4 C 64 % 1009,5 hPa 0,0 l/m 0 min 0 min 103 W/m 16,1 km/h (3 Bft) 97,87 %
11.10.2018 16:54 22,8 C 21,7 C 18,9 C 64 % 1009,6 hPa 0,0 l/m 0 min 0 min 95 W/m 16,1 km/h (3 Bft) 97,87 %
11.10.2018 16:56 22,8 C 21,7 C 18,9 C 64 % 1009,5 hPa 0,0 l/m 0 min 0 min 83 W/m 25,7 km/h (4 Bft) 95,74 %
11.10.2018 16:58 22,7 C 21,7 C 18,9 C 64 % 1009,5 hPa 0,0 l/m 0 min 0 min 78 W/m 12,9 km/h (3 Bft) 95,74 %
11.10.2018 17:00 22,7 C 21,7 C 18,9 C 64 % 1009,6 hPa 0,0 l/m 0 min 0 min 73 W/m 16,1 km/h (3 Bft) 97,83 %
11.10.2018 17:02 22,7 C 21,7 C 18,9 C 64 % 1009,5 hPa 0,0 l/m 0 min 0 min 68 W/m 12,9 km/h (3 Bft) 97,87 %
11.10.2018 17:04 22,6 C 21,1 C 18,9 C 64 % 1009,6 hPa 0,0 l/m 0 min 0 min 64 W/m 12,9 km/h (3 Bft) 97,87 %
11.10.2018 17:08 22,5 C 21,1 C 18,9 C 65 % 1009,4 hPa 0,0 l/m 0 min 0 min 60 W/m 22,5 km/h (4 Bft) 98,00 %
11.10.2018 17:10 22,4 C 21,1 C 18,9 C 65 % 1009,4 hPa 0,0 l/m 0 min 0 min 59 W/m 22,5 km/h (4 Bft) 97,87 %
11.10.2018 17:12 22,4 C 21,1 C 18,9 C 65 % 1009,5 hPa 0,0 l/m 0 min 0 min 62 W/m 16,1 km/h (3 Bft) 97,87 %
11.10.2018 17:14 22,3 C 21,1 C 18,9 C 65 % 1009,4 hPa 0,0 l/m 0 min 0 min 66 W/m 12,9 km/h (3 Bft) 97,87 %
11.10.2018 17:16 22,3 C 21,1 C 18,9 C 65 % 1009,4 hPa 0,0 l/m 0 min 0 min 69 W/m 12,9 km/h (3 Bft) 95,24 %
11.10.2018 17:18 22,2 C 21,1 C 18,9 C 66 % 1009,4 hPa 0,0 l/m 0 min 0 min 70 W/m 12,9 km/h (3 Bft) 100,00 %
11.10.2018 17:20 22,2 C 21,1 C 18,9 C 66 % 1009,4 hPa 0,0 l/m 0 min 0 min 70 W/m 12,9 km/h (3 Bft) 97,87 %
11.10.2018 17:22 22,2 C 21,1 C 18,9 C 66 % 1009,5 hPa 0,0 l/m 0 min 0 min 69 W/m 12,9 km/h (3 Bft) 100,00 %
11.10.2018 17:24 22,1 C 21,1 C 18,9 C 66 % 1009,5 hPa 0,0 l/m 0 min 0 min 67 W/m 19,3 km/h (3 Bft) 100,00 %
11.10.2018 17:26 22,1 C 21,1 C 18,3 C 66 % 1009,5 hPa 0,0 l/m 0 min 0 min 66 W/m 22,5 km/h (4 Bft) 100,00 %
11.10.2018 17:28 22,1 C 21,1 C 18,3 C 67 % 1009,5 hPa 0,0 l/m 0 min 0 min 66 W/m 16,1 km/h (3 Bft) 100,00 %
11.10.2018 17:30 22,0 C 21,1 C 18,3 C 67 % 1009,6 hPa 0,0 l/m 0 min 0 min 67 W/m 12,9 km/h (3 Bft) 97,87 %
11.10.2018 17:32 22,0 C 21,1 C 18,3 C 67 % 1009,5 hPa 0,0 l/m 0 min 0 min 74 W/m 12,9 km/h (3 Bft) 97,96 %
11.10.2018 17:34 21,9 C 21,1 C 18,3 C 67 % 1009,4 hPa 0,0 l/m 0 min 0 min 79 W/m 19,3 km/h (3 Bft) 97,83 %
11.10.2018 17:38 21,9 C 21,1 C 18,9 C 67 % 1009,5 hPa 0,0 l/m 0 min 0 min 83 W/m 19,3 km/h (3 Bft) 100,00 %
11.10.2018 17:40 21,9 C 21,1 C 18,9 C 68 % 1009,5 hPa 0,0 l/m 2 min 0 min 86 W/m 16,1 km/h (3 Bft) 97,87 %
11.10.2018 17:42 21,9 C 21,7 C 18,9 C 68 % 1009,5 hPa 0,0 l/m 2 min 0 min 89 W/m 16,1 km/h (3 Bft) 100,00 %
11.10.2018 17:44 21,9 C 21,7 C 18,9 C 68 % 1009,5 hPa 0,0 l/m 2 min 0 min 91 W/m 19,3 km/h (3 Bft) 100,00 %
11.10.2018 17:46 21,9 C 21,7 C 18,9 C 68 % 1009,6 hPa 0,0 l/m 2 min 0 min 91 W/m 16,1 km/h (3 Bft) 100,00 %
11.10.2018 17:48 21,9 C 21,7 C 18,9 C 68 % 1009,6 hPa 0,0 l/m 2 min 0 min 91 W/m 22,5 km/h (4 Bft) 100,00 %
11.10.2018 17:50 21,9 C 21,7 C 18,9 C 68 % 1009,5 hPa 0,0 l/m 2 min 0 min 91 W/m 16,1 km/h (3 Bft) 98,31 %
11.10.2018 17:52 21,9 C 21,7 C 18,9 C 68 % 1009,5 hPa 0,0 l/m 2 min 0 min 91 W/m 16,1 km/h (3 Bft) 100,00 %
11.10.2018 17:54 21,9 C 21,7 C 18,9 C 68 % 1009,5 hPa 0,0 l/m 2 min 0 min 91 W/m 12,9 km/h (3 Bft) 97,87 %
11.10.2018 17:56 21,9 C 21,7 C 18,9 C 68 % 1009,7 hPa 0,0 l/m 2 min 0 min 91 W/m 12,9 km/h (3 Bft) 100,00 %
11.10.2018 17:58 21,9 C 21,7 C 18,9 C 68 % 1009,7 hPa 0,0 l/m 2 min 0 min 90 W/m 16,1 km/h (3 Bft) 100,00 %
11.10.2018 18:00 21,9 C 21,7 C 18,9 C 68 % 1009,7 hPa 0,0 l/m 2 min 0 min 87 W/m 9,7 km/h (2 Bft) 100,00 %
11.10.2018 18:02 21,9 C 21,7 C 18,9 C 68 % 1009,7 hPa 0,0 l/m 2 min 0 min 84 W/m 19,3 km/h (3 Bft) 95,83 %
11.10.2018 18:04 21,9 C 21,7 C 18,9 C 68 % 1009,8 hPa 0,0 l/m 2 min 0 min 81 W/m 12,9 km/h (3 Bft) 100,00 %
11.10.2018 18:08 21,9 C 21,1 C 18,9 C 68 % 1009,7 hPa 0,0 l/m 4 min 0 min 74 W/m 19,3 km/h (3 Bft) 98,94 %
11.10.2018 18:10 21,9 C 21,1 C 18,9 C 68 % 1009,8 hPa 0,0 l/m 2 min 0 min 64 W/m 12,9 km/h (3 Bft) 100,00 %
11.10.2018 18:12 21,9 C 21,1 C 18,9 C 68 % 1009,8 hPa 0,0 l/m 2 min 0 min 57 W/m 12,9 km/h (3 Bft) 97,83 %
11.10.2018 18:14 21,9 C 21,1 C 18,9 C 68 % 1009,8 hPa 0,0 l/m 2 min 0 min 50 W/m 12,9 km/h (3 Bft) 100,00 %
11.10.2018 18:16 21,9 C 21,1 C 18,9 C 67 % 1009,7 hPa 0,0 l/m 2 min 0 min 45 W/m 19,3 km/h (3 Bft) 97,87 %
11.10.2018 18:18 21,9 C 21,1 C 18,3 C 67 % 1009,8 hPa 0,0 l/m 2 min 0 min 40 W/m 16,1 km/h (3 Bft) 95,74 %
11.10.2018 18:20 21,9 C 21,1 C 18,3 C 68 % 1009,8 hPa 0,0 l/m 2 min 0 min 37 W/m 12,9 km/h (3 Bft) 96,55 %
11.10.2018 18:22 21,9 C 21,1 C 18,3 C 68 % 1009,8 hPa 0,0 l/m 2 min 0 min 33 W/m 12,9 km/h (3 Bft) 100,00 %
11.10.2018 18:24 21,9 C 20,6 C 18,3 C 68 % 1009,8 hPa 0,0 l/m 2 min 0 min 29 W/m 9,7 km/h (2 Bft) 95,65 %
11.10.2018 18:26 21,9 C 20,6 C 18,3 C 68 % 1009,8 hPa 0,0 l/m 2 min 0 min 25 W/m 16,1 km/h (3 Bft) 97,87 %
11.10.2018 18:28 21,8 C 20,6 C 18,3 C 68 % 1009,8 hPa 0,0 l/m 0 min 0 min 21 W/m 6,4 km/h (2 Bft) 97,87 %
11.10.2018 18:30 21,8 C 20,6 C 18,3 C 68 % 1009,9 hPa 0,0 l/m 0 min 0 min 18 W/m 12,9 km/h (3 Bft) 97,87 %
11.10.2018 18:32 21,8 C 20,6 C 18,3 C 68 % 1009,9 hPa 0,0 l/m 0 min 0 min 15 W/m 12,9 km/h (3 Bft) 97,87 %
11.10.2018 18:34 21,8 C 20,0 C 18,3 C 68 % 1009,9 hPa 0,0 l/m 0 min 0 min 13 W/m 9,7 km/h (2 Bft) 97,83 %
11.10.2018 18:38 21,7 C 20,0 C 17,8 C 68 % 1009,9 hPa 0,0 l/m 0 min 0 min 11 W/m 16,1 km/h (3 Bft) 97,87 %
11.10.2018 18:40 21,6 C 20,0 C 17,8 C 68 % 1010,0 hPa 0,0 l/m 0 min 0 min 9 W/m 12,9 km/h (3 Bft) 93,62 %
11.10.2018 18:42 21,6 C 20,0 C 17,8 C 68 % 1009,9 hPa 0,0 l/m 0 min 0 min 8 W/m 16,1 km/h (3 Bft) 95,74 %
11.10.2018 18:44 21,6 C 20,0 C 17,8 C 69 % 1009,9 hPa 0,0 l/m 0 min 0 min 7 W/m 12,9 km/h (3 Bft) 95,74 %
11.10.2018 18:46 21,4 C 19,4 C 17,8 C 69 % 1009,9 hPa 0,0 l/m 0 min 0 min 6 W/m 12,9 km/h (3 Bft) 95,92 %
11.10.2018 18:48 21,4 C 19,4 C 17,8 C 69 % 1010,0 hPa 0,0 l/m 0 min 0 min 5 W/m 12,9 km/h (3 Bft) 95,74 %
11.10.2018 18:50 21,3 C 19,4 C 17,8 C 69 % 1010,1 hPa 0,0 l/m 0 min 0 min 5 W/m 9,7 km/h (2 Bft) 95,74 %
11.10.2018 18:52 21,3 C 19,4 C 17,8 C 69 % 1010,1 hPa 0,0 l/m 0 min 0 min 0 W/m 12,9 km/h (3 Bft) 93,62 %
11.10.2018 18:54 21,2 C 19,4 C 17,8 C 69 % 1010,1 hPa 0,0 l/m 0 min 0 min 0 W/m 16,1 km/h (3 Bft) 93,48 %
11.10.2018 18:56 21,2 C 19,4 C 17,8 C 69 % 1010,1 hPa 0,0 l/m 0 min 0 min 0 W/m 16,1 km/h (3 Bft) 95,74 %
11.10.2018 18:58 21,1 C 19,4 C 17,8 C 70 % 1010,1 hPa 0,0 l/m 0 min 0 min 0 W/m 16,1 km/h (3 Bft) 93,62 %
11.10.2018 19:00 21,0 C 19,4 C 17,2 C 70 % 1010,1 hPa 0,0 l/m 0 min 0 min 0 W/m 9,7 km/h (2 Bft) 95,74 %
11.10.2018 19:02 20,9 C 19,4 C 17,2 C 70 % 1010,2 hPa 0,0 l/m 0 min 0 min 0 W/m 12,9 km/h (3 Bft) 97,87 %
11.10.2018 19:04 20,9 C 18,9 C 17,2 C 70 % 1010,2 hPa 0,0 l/m 0 min 0 min 0 W/m 6,4 km/h (2 Bft) 97,83 %
11.10.2018 19:08 20,8 C 18,9 C 17,2 C 70 % 1010,3 hPa 0,0 l/m 0 min 0 min 0 W/m 9,7 km/h (2 Bft) 97,89 %
11.10.2018 19:10 20,7 C 18,9 C 17,2 C 70 % 1010,3 hPa 0,0 l/m 0 min 0 min 0 W/m 6,4 km/h (2 Bft) 97,83 %
11.10.2018 19:12 20,7 C 18,9 C 17,2 C 70 % 1010,4 hPa 0,0 l/m 0 min 0 min 0 W/m 9,7 km/h (2 Bft) 97,87 %
11.10.2018 19:14 20,6 C 18,9 C 17,2 C 70 % 1010,4 hPa 0,0 l/m 0 min 0 min 0 W/m 9,7 km/h (2 Bft) 95,74 %
11.10.2018 19:16 20,6 C 18,9 C 17,2 C 70 % 1010,4 hPa 0,0 l/m 0 min 0 min 0 W/m 12,9 km/h (3 Bft) 97,87 %
11.10.2018 19:18 20,5 C 18,9 C 17,2 C 70 % 1010,4 hPa 0,0 l/m 0 min 0 min 0 W/m 6,4 km/h (2 Bft) 97,87 %
11.10.2018 19:20 20,5 C 18,9 C 16,7 C 71 % 1010,4 hPa 0,0 l/m 0 min 0 min 0 W/m 6,4 km/h (2 Bft) 97,83 %
11.10.2018 19:22 20,4 C 18,9 C 16,7 C 71 % 1010,4 hPa 0,0 l/m 0 min 0 min 0 W/m 6,4 km/h (2 Bft) 97,87 %
11.10.2018 19:24 20,4 C 18,3 C 16,7 C 71 % 1010,4 hPa 0,0 l/m 0 min 0 min 0 W/m 6,4 km/h (2 Bft) 100,00 %
11.10.2018 19:26 20,3 C 18,3 C 16,7 C 71 % 1010,3 hPa 0,0 l/m 0 min 0 min 0 W/m 9,7 km/h (2 Bft) 100,00 %
11.10.2018 19:28 20,2 C 18,3 C 16,7 C 71 % 1010,4 hPa 0,0 l/m 0 min 0 min 0 W/m 6,4 km/h (2 Bft) 100,00 %
11.10.2018 19:30 20,2 C 18,3 C 16,7 C 71 % 1010,4 hPa 0,0 l/m 0 min 0 min 0 W/m 6,4 km/h (2 Bft) 100,00 %
11.10.2018 19:32 20,1 C 18,3 C 16,7 C 71 % 1010,4 hPa 0,0 l/m 0 min 0 min 0 W/m 9,7 km/h (2 Bft) 95,83 %
11.10.2018 19:34 20,1 C 18,3 C 16,7 C 72 % 1010,5 hPa 0,0 l/m 0 min 0 min 0 W/m 9,7 km/h (2 Bft) 100,00 %
11.10.2018 19:38 19,9 C 18,3 C 16,7 C 72 % 1010,5 hPa 0,0 l/m 0 min 0 min 0 W/m 9,7 km/h (2 Bft) 100,00 %
11.10.2018 19:40 19,9 C 18,3 C 16,7 C 72 % 1010,5 hPa 0,0 l/m 0 min 0 min 0 W/m 9,7 km/h (2 Bft) 97,87 %
11.10.2018 19:42 19,8 C 18,3 C 16,7 C 72 % 1010,5 hPa 0,0 l/m 0 min 0 min 0 W/m 9,7 km/h (2 Bft) 97,87 %
11.10.2018 19:44 19,7 C 18,3 C 16,7 C 72 % 1010,5 hPa 0,0 l/m 0 min 0 min 0 W/m 6,4 km/h (2 Bft) 97,87 %
11.10.2018 19:46 19,7 C 18,3 C 16,7 C 72 % 1010,7 hPa 0,0 l/m 0 min 0 min 0 W/m 6,4 km/h (2 Bft) 97,87 %
11.10.2018 19:48 19,7 C 18,3 C 16,7 C 72 % 1010,7 hPa 0,0 l/m 0 min 0 min 0 W/m 6,4 km/h (2 Bft) 95,74 %
11.10.2018 19:50 19,6 C 18,3 C 16,7 C 73 % 1010,6 hPa 0,0 l/m 0 min 0 min 0 W/m 9,7 km/h (2 Bft) 97,83 %
11.10.2018 19:52 19,6 C 18,3 C 16,7 C 73 % 1010,7 hPa 0,0 l/m 0 min 0 min 0 W/m 9,7 km/h (2 Bft) 97,87 %
11.10.2018 19:54 19,5 C 18,3 C 16,1 C 73 % 1010,8 hPa 0,0 l/m 0 min 0 min 0 W/m 9,7 km/h (2 Bft) 97,87 %
11.10.2018 19:56 19,5 C 17,8 C 16,1 C 73 % 1010,8 hPa 0,0 l/m 0 min 0 min 0 W/m 6,4 km/h (2 Bft) 95,74 %
11.10.2018 19:58 19,4 C 17,8 C 16,1 C 73 % 1010,7 hPa 0,0 l/m 0 min 0 min 0 W/m 9,7 km/h (2 Bft) 97,87 %
11.10.2018 20:00 19,4 C 17,8 C 16,1 C 74 % 1010,7 hPa 0,0 l/m 0 min 0 min 0 W/m 9,7 km/h (2 Bft) 97,87 %
11.10.2018 20:02 19,3 C 17,8 C 16,1 C 74 % 1010,9 hPa 0,0 l/m 0 min 0 min 0 W/m 9,7 km/h (2 Bft) 97,83 %
11.10.2018 20:04 19,3 C 17,8 C 16,1 C 74 % 1010,8 hPa 0,0 l/m 0 min 0 min 0 W/m 6,4 km/h (2 Bft) 97,87 %
11.10.2018 20:08 19,2 C 17,8 C 16,1 C 74 % 1010,8 hPa 0,0 l/m 0 min 0 min 0 W/m 9,7 km/h (2 Bft) 95,79 %
11.10.2018 20:10 19,2 C 17,8 C 16,1 C 74 % 1010,9 hPa 0,0 l/m 0 min 0 min 0 W/m 9,7 km/h (2 Bft) 97,87 %
11.10.2018 20:12 19,2 C 17,8 C 16,1 C 75 % 1010,8 hPa 0,0 l/m 0 min 0 min 0 W/m 6,4 km/h (2 Bft) 95,74 %
11.10.2018 20:14 19,1 C 17,8 C 16,1 C 75 % 1010,8 hPa 0,0 l/m 0 min 0 min 0 W/m 9,7 km/h (2 Bft) 97,83 %
11.10.2018 20:16 19,1 C 17,8 C 16,1 C 75 % 1010,8 hPa 0,0 l/m 0 min 0 min 0 W/m 9,7 km/h (2 Bft) 97,87 %
11.10.2018 20:18 19,1 C 17,8 C 16,1 C 76 % 1010,8 hPa 0,0 l/m 0 min 0 min 0 W/m 12,9 km/h (3 Bft) 97,87 %
11.10.2018 20:20 19,0 C 17,8 C 16,1 C 76 % 1010,8 hPa 0,0 l/m 0 min 0 min 0 W/m 12,9 km/h (3 Bft) 97,87 %
11.10.2018 20:22 18,9 C 17,8 C 16,1 C 76 % 1010,9 hPa 0,0 l/m 0 min 0 min 0 W/m 9,7 km/h (2 Bft) 97,87 %
11.10.2018 20:24 18,9 C 17,8 C 16,1 C 76 % 1010,9 hPa 0,0 l/m 0 min 0 min 0 W/m 6,4 km/h (2 Bft) 95,74 %
11.10.2018 20:26 18,9 C 17,8 C 16,1 C 76 % 1010,8 hPa 0,0 l/m 0 min 0 min 0 W/m 12,9 km/h (3 Bft) 97,83 %
11.10.2018 20:28 18,9 C 17,8 C 16,1 C 77 % 1010,8 hPa 0,0 l/m 0 min 0 min 0 W/m 19,3 km/h (3 Bft) 97,87 %
11.10.2018 20:30 18,9 C 17,8 C 16,1 C 77 % 1010,9 hPa 0,0 l/m 0 min 0 min 0 W/m 12,9 km/h (3 Bft) 97,87 %
11.10.2018 20:32 18,8 C 17,8 C 16,1 C 77 % 1011,0 hPa 0,0 l/m 0 min 0 min 0 W/m 9,7 km/h (2 Bft) 97,87 %
11.10.2018 20:34 18,8 C 17,8 C 16,1 C 77 % 1011,0 hPa 0,0 l/m 0 min 0 min 0 W/m 12,9 km/h (3 Bft) 97,87 %
11.10.2018 20:38 18,8 C 17,8 C 16,1 C 77 % 1011,0 hPa 0,0 l/m 0 min 0 min 0 W/m 12,9 km/h (3 Bft) 97,85 %
11.10.2018 20:40 18,7 C 17,8 C 16,1 C 77 % 1011,1 hPa 0,0 l/m 0 min 0 min 0 W/m 12,9 km/h (3 Bft) 97,87 %
11.10.2018 20:42 18,7 C 17,8 C 16,1 C 78 % 1011,1 hPa 0,0 l/m 0 min 0 min 0 W/m 9,7 km/h (2 Bft) 97,87 %
11.10.2018 20:44 18,7 C 17,8 C 16,1 C 78 % 1011,1 hPa 0,0 l/m 0 min 0 min 0 W/m 9,7 km/h (2 Bft) 97,87 %
11.10.2018 20:46 18,7 C 17,8 C 16,1 C 78 % 1011,1 hPa 0,0 l/m 0 min 0 min 0 W/m 9,7 km/h (2 Bft) 100,00 %
11.10.2018 20:48 18,6 C 17,8 C 16,1 C 78 % 1011,1 hPa 0,0 l/m 0 min 0 min 0 W/m 9,7 km/h (2 Bft) 97,83 %
11.10.2018 20:50 18,6 C 17,8 C 16,1 C 78 % 1011,1 hPa 0,0 l/m 0 min 0 min 0 W/m 9,7 km/h (2 Bft) 97,87 %
11.10.2018 20:52 18,6 C 17,8 C 16,1 C 78 % 1011,1 hPa 0,0 l/m 0 min 0 min 0 W/m 6,4 km/h (2 Bft) 100,00 %
11.10.2018 20:54 18,6 C 17,8 C 16,1 C 78 % 1011,1 hPa 0,0 l/m 0 min 0 min 0 W/m 9,7 km/h (2 Bft) 97,87 %
11.10.2018 20:56 18,6 C 17,8 C 16,1 C 78 % 1011,1 hPa 0,0 l/m 0 min 0 min 0 W/m 9,7 km/h (2 Bft) 100,00 %
11.10.2018 20:58 18,5 C 17,2 C 16,1 C 78 % 1011,1 hPa 0,0 l/m 0 min 0 min 0 W/m 6,4 km/h (2 Bft) 97,87 %
11.10.2018 21:00 18,5 C 17,2 C 16,1 C 78 % 1011,0 hPa 0,0 l/m 0 min 0 min 0 W/m 6,4 km/h (2 Bft) 97,83 %
11.10.2018 21:02 18,5 C 17,2 C 16,1 C 78 % 1011,0 hPa 0,0 l/m 0 min 0 min 0 W/m 9,7 km/h (2 Bft) 97,87 %
11.10.2018 21:04 18,4 C 17,2 C 16,1 C 78 % 1011,0 hPa 0,0 l/m 0 min 0 min 0 W/m 6,4 km/h (2 Bft) 97,87 %
11.10.2018 21:08 18,4 C 17,2 C 15,6 C 78 % 1011,0 hPa 0,0 l/m 0 min 0 min 0 W/m 9,7 km/h (2 Bft) 97,87 %
11.10.2018 21:10 18,4 C 17,2 C 15,6 C 78 % 1011,0 hPa 0,0 l/m 0 min 0 min 0 W/m 12,9 km/h (3 Bft) 97,87 %
11.10.2018 21:12 18,3 C 17,2 C 15,6 C 78 % 1011,0 hPa 0,0 l/m 0 min 0 min 0 W/m 9,7 km/h (2 Bft) 95,65 %
11.10.2018 21:14 18,3 C 17,2 C 15,6 C 78 % 1011,0 hPa 0,0 l/m 0 min 0 min 0 W/m 9,7 km/h (2 Bft) 97,87 %
11.10.2018 21:16 18,3 C 17,2 C 15,6 C 78 % 1011,1 hPa 0,0 l/m 0 min 0 min 0 W/m 9,7 km/h (2 Bft) 97,87 %
11.10.2018 21:18 18,2 C 17,2 C 15,6 C 78 % 1011,1 hPa 0,0 l/m 0 min 0 min 0 W/m 9,7 km/h (2 Bft) 97,87 %
11.10.2018 21:20 18,2 C 17,2 C 15,6 C 78 % 1011,0 hPa 0,0 l/m 0 min 0 min 0 W/m 9,7 km/h (2 Bft) 97,87 %
11.10.2018 21:22 18,2 C 17,2 C 15,6 C 78 % 1011,0 hPa 0,0 l/m 0 min 0 min 0 W/m 12,9 km/h (3 Bft) 97,87 %
11.10.2018 21:24 18,2 C 17,2 C 15,6 C 78 % 1011,0 hPa 0,0 l/m 0 min 0 min 0 W/m 16,1 km/h (3 Bft) 97,83 %
11.10.2018 21:26 18,1 C 17,2 C 15,6 C 78 % 1011,0 hPa 0,0 l/m 0 min 0 min 0 W/m 9,7 km/h (2 Bft) 95,74 %
11.10.2018 21:28 18,1 C 17,2 C 15,6 C 78 % 1011,0 hPa 0,0 l/m 0 min 0 min 0 W/m 9,7 km/h (2 Bft) 95,74 %
11.10.2018 21:30 18,1 C 17,2 C 15,6 C 78 % 1011,0 hPa 0,0 l/m 0 min 0 min 0 W/m 9,7 km/h (2 Bft) 95,74 %
11.10.2018 21:32 18,1 C 17,2 C 15,6 C 79 % 1011,0 hPa 0,0 l/m 0 min 0 min 0 W/m 6,4 km/h (2 Bft) 93,62 %
11.10.2018 21:34 18,1 C 17,2 C 15,6 C 79 % 1011,0 hPa 0,0 l/m 0 min 0 min 0 W/m 12,9 km/h (3 Bft) 93,62 %
11.10.2018 21:38 18,1 C 17,2 C 15,6 C 79 % 1010,9 hPa 0,0 l/m 0 min 0 min 0 W/m 16,1 km/h (3 Bft) 93,55 %
11.10.2018 21:40 18,0 C 17,2 C 16,1 C 79 % 1010,9 hPa 0,0 l/m 0 min 0 min 0 W/m 12,9 km/h (3 Bft) 95,74 %
11.10.2018 21:42 18,0 C 17,2 C 16,1 C 79 % 1011,0 hPa 0,0 l/m 0 min 0 min 0 W/m 9,7 km/h (2 Bft) 95,74 %
11.10.2018 21:44 18,0 C 17,2 C 16,1 C 79 % 1010,9 hPa 0,0 l/m 0 min 0 min 0 W/m 12,9 km/h (3 Bft) 95,74 %
11.10.2018 21:46 18,0 C 17,2 C 16,1 C 79 % 1011,0 hPa 0,0 l/m 0 min 0 min 0 W/m 9,7 km/h (2 Bft) 95,74 %
11.10.2018 21:48 18,0 C 17,2 C 16,1 C 79 % 1011,0 hPa 0,0 l/m 0 min 0 min 0 W/m 16,1 km/h (3 Bft) 95,65 %
11.10.2018 21:50 18,0 C 17,2 C 16,1 C 79 % 1011,1 hPa 0,0 l/m 0 min 0 min 0 W/m 12,9 km/h (3 Bft) 93,62 %
11.10.2018 21:52 17,9 C 17,2 C 16,1 C 79 % 1011,0 hPa 0,0 l/m 0 min 0 min 0 W/m 9,7 km/h (2 Bft) 95,74 %
11.10.2018 21:54 18,0 C 17,2 C 16,1 C 79 % 1011,1 hPa 0,0 l/m 0 min 0 min 0 W/m 12,9 km/h (3 Bft) 97,87 %
11.10.2018 21:56 17,9 C 17,2 C 15,6 C 79 % 1011,1 hPa 0,0 l/m 0 min 0 min 0 W/m 9,7 km/h (2 Bft) 97,87 %
11.10.2018 21:58 17,9 C 17,2 C 16,1 C 79 % 1011,2 hPa 0,0 l/m 0 min 0 min 0 W/m 12,9 km/h (3 Bft) 95,65 %
11.10.2018 22:00 17,9 C 17,2 C 15,6 C 79 % 1011,2 hPa 0,0 l/m 0 min 0 min 0 W/m 9,7 km/h (2 Bft) 97,87 %
11.10.2018 22:02 17,9 C 17,2 C 15,6 C 79 % 1011,2 hPa 0,0 l/m 0 min 0 min 0 W/m 9,7 km/h (2 Bft) 97,87 %
11.10.2018 22:04 17,9 C 16,7 C 15,6 C 79 % 1011,1 hPa 0,0 l/m 0 min 0 min 0 W/m 9,7 km/h (2 Bft) 97,87 %
11.10.2018 22:08 17,9 C 16,7 C 15,6 C 79 % 1011,2 hPa 0,0 l/m 0 min 0 min 0 W/m 12,9 km/h (3 Bft) 96,84 %
11.10.2018 22:10 17,9 C 16,7 C 15,6 C 79 % 1011,2 hPa 0,0 l/m 0 min 0 min 0 W/m 9,7 km/h (2 Bft) 97,83 %
11.10.2018 22:12 17,9 C 16,7 C 15,6 C 79 % 1011,1 hPa 0,0 l/m 0 min 0 min 0 W/m 12,9 km/h (3 Bft) 97,87 %
11.10.2018 22:14 17,8 C 16,7 C 15,6 C 79 % 1011,1 hPa 0,0 l/m 0 min 0 min 0 W/m 9,7 km/h (2 Bft) 100,00 %
11.10.2018 22:16 17,8 C 16,7 C 15,6 C 79 % 1011,1 hPa 0,0 l/m 0 min 0 min 0 W/m 16,1 km/h (3 Bft) 97,67 %
11.10.2018 22:18 17,8 C 16,7 C 15,6 C 80 % 1011,1 hPa 0,0 l/m 0 min 0 min 0 W/m 9,7 km/h (2 Bft) 100,00 %
11.10.2018 22:20 17,8 C 16,7 C 15,6 C 80 % 1011,1 hPa 0,0 l/m 0 min 0 min 0 W/m 16,1 km/h (3 Bft) 100,00 %
11.10.2018 22:22 17,8 C 16,7 C 15,6 C 80 % 1011,1 hPa 0,0 l/m 0 min 0 min 0 W/m 16,1 km/h (3 Bft) 97,87 %
11.10.2018 22:24 17,8 C 16,7 C 15,6 C 80 % 1011,0 hPa 0,0 l/m 0 min 0 min 0 W/m 16,1 km/h (3 Bft) 100,00 %
11.10.2018 22:26 17,7 C 16,7 C 15,6 C 80 % 1011,0 hPa 0,0 l/m 0 min 0 min 0 W/m 16,1 km/h (3 Bft) 97,87 %
11.10.2018 22:28 17,7 C 16,7 C 15,6 C 80 % 1011,1 hPa 0,0 l/m 0 min 0 min 0 W/m 12,9 km/h (3 Bft) 100,00 %
11.10.2018 22:30 17,7 C 16,7 C 15,6 C 80 % 1011,1 hPa 0,0 l/m 0 min 0 min 0 W/m 9,7 km/h (2 Bft) 100,00 %
11.10.2018 22:32 17,7 C 16,7 C 15,6 C 80 % 1011,1 hPa 0,0 l/m 0 min 0 min 0 W/m 9,7 km/h (2 Bft) 100,00 %
11.10.2018 22:34 17,7 C 16,7 C 15,6 C 80 % 1011,1 hPa 0,0 l/m 0 min 0 min 0 W/m 9,7 km/h (2 Bft) 100,00 %
11.10.2018 22:38 17,7 C 16,7 C 15,6 C 80 % 1011,1 hPa 0,0 l/m 0 min 0 min 0 W/m 12,9 km/h (3 Bft) 100,00 %
11.10.2018 22:40 17,6 C 16,7 C 15,6 C 80 % 1011,2 hPa 0,0 l/m 0 min 0 min 0 W/m 12,9 km/h (3 Bft) 100,00 %
11.10.2018 22:42 17,6 C 16,7 C 15,6 C 80 % 1011,2 hPa 0,0 l/m 0 min 0 min 0 W/m 9,7 km/h (2 Bft) 100,00 %
11.10.2018 22:44 17,6 C 16,7 C 15,6 C 80 % 1011,2 hPa 0,0 l/m 0 min 0 min 0 W/m 9,7 km/h (2 Bft) 100,00 %
11.10.2018 22:46 17,6 C 16,7 C 15,6 C 80 % 1011,2 hPa 0,0 l/m 0 min 0 min 0 W/m 9,7 km/h (2 Bft) 100,00 %
11.10.2018 22:48 17,6 C 16,7 C 15,0 C 80 % 1011,2 hPa 0,0 l/m 0 min 0 min 0 W/m 9,7 km/h (2 Bft) 100,00 %
11.10.2018 22:50 17,6 C 16,7 C 15,0 C 80 % 1011,2 hPa 0,0 l/m 0 min 0 min 0 W/m 12,9 km/h (3 Bft) 100,00 %
11.10.2018 22:52 17,5 C 16,7 C 15,0 C 80 % 1011,3 hPa 0,0 l/m 0 min 0 min 0 W/m 9,7 km/h (2 Bft) 97,92 %
11.10.2018 22:54 17,5 C 16,7 C 15,0 C 81 % 1011,3 hPa 0,0 l/m 0 min 0 min 0 W/m 9,7 km/h (2 Bft) 100,00 %
11.10.2018 22:56 17,5 C 16,7 C 15,0 C 81 % 1011,3 hPa 0,0 l/m 0 min 0 min 0 W/m 12,9 km/h (3 Bft) 100,00 %
11.10.2018 22:58 17,5 C 16,7 C 15,0 C 81 % 1011,3 hPa 0,0 l/m 0 min 0 min 0 W/m 9,7 km/h (2 Bft) 100,00 %
11.10.2018 23:00 17,4 C 16,7 C 15,0 C 81 % 1011,3 hPa 0,0 l/m 0 min 0 min 0 W/m 6,4 km/h (2 Bft) 97,87 %
11.10.2018 23:02 17,4 C 16,7 C 15,0 C 81 % 1011,3 hPa 0,0 l/m 0 min 0 min 0 W/m 12,9 km/h (3 Bft) 100,00 %
11.10.2018 23:04 17,4 C 16,7 C 15,6 C 81 % 1011,3 hPa 0,0 l/m 0 min 0 min 0 W/m 12,9 km/h (3 Bft) 100,00 %
11.10.2018 23:08 17,4 C 16,7 C 15,6 C 81 % 1011,2 hPa 0,0 l/m 0 min 0 min 0 W/m 12,9 km/h (3 Bft) 100,00 %
11.10.2018 23:10 17,4 C 16,1 C 15,0 C 81 % 1011,3 hPa 0,0 l/m 0 min 0 min 0 W/m 12,9 km/h (3 Bft) 97,87 %
11.10.2018 23:12 17,3 C 16,1 C 15,0 C 81 % 1011,3 hPa 0,0 l/m 0 min 0 min 0 W/m 6,4 km/h (2 Bft) 100,00 %
11.10.2018 23:14 17,3 C 16,1 C 15,0 C 81 % 1011,3 hPa 0,0 l/m 0 min 0 min 0 W/m 9,7 km/h (2 Bft) 97,87 %
11.10.2018 23:16 17,3 C 16,1 C 15,0 C 81 % 1011,3 hPa 0,0 l/m 0 min 0 min 0 W/m 16,1 km/h (3 Bft) 100,00 %
11.10.2018 23:18 17,3 C 16,1 C 15,0 C 81 % 1011,3 hPa 0,0 l/m 0 min 0 min 0 W/m 9,7 km/h (2 Bft) 100,00 %
11.10.2018 23:20 17,3 C 16,1 C 15,0 C 81 % 1011,4 hPa 0,0 l/m 0 min 0 min 0 W/m 12,9 km/h (3 Bft) 100,00 %
11.10.2018 23:22 17,2 C 16,1 C 15,0 C 81 % 1011,4 hPa 0,0 l/m 0 min 0 min 0 W/m 9,7 km/h (2 Bft) 95,83 %
11.10.2018 23:24 17,2 C 16,1 C 15,0 C 81 % 1011,4 hPa 0,0 l/m 0 min 0 min 0 W/m 12,9 km/h (3 Bft) 97,87 %
11.10.2018 23:26 17,2 C 16,1 C 15,0 C 81 % 1011,4 hPa 0,0 l/m 0 min 0 min 0 W/m 9,7 km/h (2 Bft) 97,14 %
11.10.2018 23:28 17,2 C 16,1 C 15,0 C 81 % 1011,3 hPa 0,0 l/m 0 min 0 min 0 W/m 12,9 km/h (3 Bft) 97,92 %
11.10.2018 23:30 17,1 C 16,1 C 15,0 C 81 % 1011,3 hPa 0,0 l/m 0 min 0 min 0 W/m 9,7 km/h (2 Bft) 97,87 %
11.10.2018 23:32 17,1 C 16,1 C 15,0 C 81 % 1011,3 hPa 0,0 l/m 0 min 0 min 0 W/m 12,9 km/h (3 Bft) 97,87 %
11.10.2018 23:34 17,1 C 16,1 C 15,0 C 81 % 1011,2 hPa 0,0 l/m 0 min 0 min 0 W/m 9,7 km/h (2 Bft) 97,83 %
11.10.2018 23:38 17,0 C 15,6 C 15,0 C 81 % 1011,1 hPa 0,0 l/m 0 min 0 min 0 W/m 9,7 km/h (2 Bft) 97,87 %
11.10.2018 23:40 17,0 C 15,6 C 15,0 C 82 % 1011,0 hPa 0,0 l/m 0 min 0 min 0 W/m 19,3 km/h (3 Bft) 97,87 %
11.10.2018 23:42 16,9 C 16,1 C 15,0 C 82 % 1011,1 hPa 0,0 l/m 0 min 0 min 0 W/m 12,9 km/h (3 Bft) 95,74 %
11.10.2018 23:44 16,9 C 16,1 C 15,0 C 82 % 1011,1 hPa 0,0 l/m 0 min 0 min 0 W/m 9,7 km/h (2 Bft) 95,74 %
11.10.2018 23:46 16,9 C 16,1 C 15,0 C 82 % 1011,0 hPa 0,0 l/m 0 min 0 min 0 W/m 12,9 km/h (3 Bft) 93,48 %
11.10.2018 23:48 16,9 C 16,1 C 15,0 C 82 % 1011,0 hPa 0,0 l/m 0 min 0 min 0 W/m 12,9 km/h (3 Bft) 97,62 %
11.10.2018 23:50 16,9 C 16,1 C 15,0 C 82 % 1011,0 hPa 0,0 l/m 0 min 0 min 0 W/m 12,9 km/h (3 Bft) 98,28 %
11.10.2018 23:52 16,8 C 16,1 C 15,0 C 82 % 1010,9 hPa 0,0 l/m 0 min 0 min 0 W/m 12,9 km/h (3 Bft) 93,62 %
11.10.2018 23:54 16,8 C 16,1 C 15,0 C 82 % 1010,9 hPa 0,0 l/m 0 min 0 min 0 W/m 22,5 km/h (4 Bft) 100,00 %
11.10.2018 23:56 16,8 C 16,1 C 15,0 C 82 % 1010,9 hPa 0,0 l/m 0 min 0 min 0 W/m 16,1 km/h (3 Bft) 95,74 %
11.10.2018 23:58 16,8 C 16,1 C 15,0 C 82 % 1010,9 hPa 0,0 l/m 0 min 0 min 0 W/m 12,9 km/h (3 Bft) 95,74 %
_ Min-Zeit 07:14 06:24 04:04 16:34 04:58 - - - - 00:04 00:54
Minimum _ 13,4 C 12,8 C 12,2 C 63 % 1009,1 hPa - - - - 0,0 km/h (0 Bft) 91,30 %
_ Max-Zeit 16:34 11:50 16:30 08:00 23:20 00:00 10:38 00:00 16:10 16:50 01:20
Maximum _ 22,9 C 27,8 C 20,0 C 89 % 1011,4 hPa 0,0 l/m 4 min 0 min 508 W/m 32,2 km/h
S-SO (5 Bft)
100,00 %
Durchschnitt _ 17,6 C 17,5 C 15,1 C 78 % 1010,3 hPa #0,0 l/m #2:18 h #0 min. 133 W/m 11,5 km/h (2 Bft) 97,47 %
© 2018 W. Hausmann